<?xml version="1.0" encoding="UTF-8" standalone="no" ?>
<gpx xmlns="http://www.topografix.com/GPX/1/1" xmlns:xsi="http://www.w3.org/2001/XMLSchema-instance" xsi:schemaLocation="http://www.topografix.com/GPX/1/1 http://www.topografix.com/GPX/1/1/gpx.xsd" version="1.1" creator="VisuGPX - https://www.visugpx.com">
  <metadata>
    <name>Course à pied dans l'après-midi</name>
  </metadata>
  <trk>
    <name><![CDATA[Course à pied dans l'après-midi_1]]></name>
    <trkseg>
      <trkpt lat="48.19686" lon="5.94365">
        <ele>358.4</ele>
        <time>2024-02-19T14:05:57Z</time>
      </trkpt>
      <trkpt lat="48.19686" lon="5.94365">
        <ele>358.4</ele>
        <time>2024-02-19T14:06:09Z</time>
      </trkpt>
      <trkpt lat="48.19686" lon="5.94365">
        <ele>358.4</ele>
        <time>2024-02-19T14:06:18Z</time>
      </trkpt>
      <trkpt lat="48.19686" lon="5.94365">
        <ele>358.4</ele>
        <time>2024-02-19T14:06:27Z</time>
      </trkpt>
      <trkpt lat="48.19686" lon="5.94365">
        <ele>358.4</ele>
        <time>2024-02-19T14:06:36Z</time>
      </trkpt>
      <trkpt lat="48.19686" lon="5.94365">
        <ele>358.4</ele>
        <time>2024-02-19T14:06:45Z</time>
      </trkpt>
      <trkpt lat="48.19686" lon="5.94365">
        <ele>358.4</ele>
        <time>2024-02-19T14:06:54Z</time>
      </trkpt>
      <trkpt lat="48.19686" lon="5.94365">
        <ele>358.4</ele>
        <time>2024-02-19T14:07:03Z</time>
      </trkpt>
      <trkpt lat="48.19686" lon="5.94365">
        <ele>358.4</ele>
        <time>2024-02-19T14:07:12Z</time>
      </trkpt>
      <trkpt lat="48.19686" lon="5.94365">
        <ele>358.4</ele>
        <time>2024-02-19T14:07:21Z</time>
      </trkpt>
      <trkpt lat="48.19686" lon="5.94365">
        <ele>358.4</ele>
        <time>2024-02-19T14:07:30Z</time>
      </trkpt>
      <trkpt lat="48.19686" lon="5.94365">
        <ele>358.4</ele>
        <time>2024-02-19T14:07:39Z</time>
      </trkpt>
      <trkpt lat="48.19686" lon="5.94365">
        <ele>358.4</ele>
        <time>2024-02-19T14:07:48Z</time>
      </trkpt>
      <trkpt lat="48.19686" lon="5.94365">
        <ele>358.4</ele>
        <time>2024-02-19T14:07:57Z</time>
      </trkpt>
      <trkpt lat="48.19686" lon="5.94365">
        <ele>358.4</ele>
        <time>2024-02-19T14:08:06Z</time>
      </trkpt>
      <trkpt lat="48.19686" lon="5.94365">
        <ele>358.4</ele>
        <time>2024-02-19T14:08:15Z</time>
      </trkpt>
      <trkpt lat="48.19686" lon="5.94365">
        <ele>358.4</ele>
        <time>2024-02-19T14:08:24Z</time>
      </trkpt>
      <trkpt lat="48.19686" lon="5.94365">
        <ele>358.4</ele>
        <time>2024-02-19T14:08:33Z</time>
      </trkpt>
      <trkpt lat="48.19686" lon="5.94365">
        <ele>358.4</ele>
        <time>2024-02-19T14:08:42Z</time>
      </trkpt>
      <trkpt lat="48.19686" lon="5.94365">
        <ele>358.4</ele>
        <time>2024-02-19T14:08:50Z</time>
      </trkpt>
      <trkpt lat="48.19686" lon="5.94365">
        <ele>358.4</ele>
        <time>2024-02-19T14:08:57Z</time>
      </trkpt>
      <trkpt lat="48.19686" lon="5.94365">
        <ele>358.4</ele>
        <time>2024-02-19T14:09:04Z</time>
      </trkpt>
      <trkpt lat="48.19686" lon="5.94365">
        <ele>358.4</ele>
        <time>2024-02-19T14:09:11Z</time>
      </trkpt>
      <trkpt lat="48.19686" lon="5.94365">
        <ele>358.4</ele>
        <time>2024-02-19T14:09:18Z</time>
      </trkpt>
      <trkpt lat="48.19686" lon="5.94365">
        <ele>358.4</ele>
        <time>2024-02-19T14:09:23Z</time>
      </trkpt>
      <trkpt lat="48.19663" lon="5.94356">
        <ele>358.4</ele>
        <time>2024-02-19T14:09:31Z</time>
      </trkpt>
      <trkpt lat="48.19649" lon="5.94334">
        <ele>358.6</ele>
        <time>2024-02-19T14:09:39Z</time>
      </trkpt>
      <trkpt lat="48.19644" lon="5.94302">
        <ele>358.6</ele>
        <time>2024-02-19T14:09:47Z</time>
      </trkpt>
      <trkpt lat="48.1964" lon="5.94275">
        <ele>358.8</ele>
        <time>2024-02-19T14:09:54Z</time>
      </trkpt>
      <trkpt lat="48.19637" lon="5.94246">
        <ele>359.1</ele>
        <time>2024-02-19T14:10:01Z</time>
      </trkpt>
      <trkpt lat="48.19634" lon="5.94215">
        <ele>359.5</ele>
        <time>2024-02-19T14:10:08Z</time>
      </trkpt>
      <trkpt lat="48.19631" lon="5.94185">
        <ele>360</ele>
        <time>2024-02-19T14:10:15Z</time>
      </trkpt>
      <trkpt lat="48.19613" lon="5.94161">
        <ele>360.6</ele>
        <time>2024-02-19T14:10:24Z</time>
      </trkpt>
      <trkpt lat="48.19602" lon="5.94138">
        <ele>361.3</ele>
        <time>2024-02-19T14:10:31Z</time>
      </trkpt>
      <trkpt lat="48.19595" lon="5.94122">
        <ele>361.6</ele>
        <time>2024-02-19T14:10:36Z</time>
      </trkpt>
      <trkpt lat="48.19596" lon="5.94108">
        <ele>361.7</ele>
        <time>2024-02-19T14:10:40Z</time>
      </trkpt>
      <trkpt lat="48.19586" lon="5.94085">
        <ele>362</ele>
        <time>2024-02-19T14:10:47Z</time>
      </trkpt>
      <trkpt lat="48.19576" lon="5.94061">
        <ele>363</ele>
        <time>2024-02-19T14:10:54Z</time>
      </trkpt>
      <trkpt lat="48.19563" lon="5.94039">
        <ele>363.5</ele>
        <time>2024-02-19T14:11:01Z</time>
      </trkpt>
      <trkpt lat="48.19553" lon="5.94016">
        <ele>363.8</ele>
        <time>2024-02-19T14:11:08Z</time>
      </trkpt>
      <trkpt lat="48.19541" lon="5.93993">
        <ele>364.2</ele>
        <time>2024-02-19T14:11:15Z</time>
      </trkpt>
      <trkpt lat="48.19527" lon="5.9397">
        <ele>364.7</ele>
        <time>2024-02-19T14:11:22Z</time>
      </trkpt>
      <trkpt lat="48.19511" lon="5.9395">
        <ele>365.2</ele>
        <time>2024-02-19T14:11:29Z</time>
      </trkpt>
      <trkpt lat="48.19497" lon="5.9393">
        <ele>365.8</ele>
        <time>2024-02-19T14:11:36Z</time>
      </trkpt>
      <trkpt lat="48.19481" lon="5.93909">
        <ele>366.5</ele>
        <time>2024-02-19T14:11:44Z</time>
      </trkpt>
      <trkpt lat="48.19468" lon="5.93886">
        <ele>367.1</ele>
        <time>2024-02-19T14:11:52Z</time>
      </trkpt>
      <trkpt lat="48.19457" lon="5.93863">
        <ele>367.7</ele>
        <time>2024-02-19T14:12:00Z</time>
      </trkpt>
      <trkpt lat="48.19446" lon="5.93841">
        <ele>368.4</ele>
        <time>2024-02-19T14:12:07Z</time>
      </trkpt>
      <trkpt lat="48.19436" lon="5.93816">
        <ele>369.1</ele>
        <time>2024-02-19T14:12:14Z</time>
      </trkpt>
      <trkpt lat="48.19429" lon="5.93792">
        <ele>369.9</ele>
        <time>2024-02-19T14:12:21Z</time>
      </trkpt>
      <trkpt lat="48.19415" lon="5.93771">
        <ele>370.7</ele>
        <time>2024-02-19T14:12:29Z</time>
      </trkpt>
      <trkpt lat="48.19399" lon="5.93754">
        <ele>371.5</ele>
        <time>2024-02-19T14:12:37Z</time>
      </trkpt>
      <trkpt lat="48.19381" lon="5.93745">
        <ele>372.2</ele>
        <time>2024-02-19T14:12:45Z</time>
      </trkpt>
      <trkpt lat="48.19373" lon="5.93721">
        <ele>372.8</ele>
        <time>2024-02-19T14:12:54Z</time>
      </trkpt>
      <trkpt lat="48.1936" lon="5.937">
        <ele>373.5</ele>
        <time>2024-02-19T14:13:04Z</time>
      </trkpt>
      <trkpt lat="48.19342" lon="5.9369">
        <ele>374.2</ele>
        <time>2024-02-19T14:13:15Z</time>
      </trkpt>
      <trkpt lat="48.19333" lon="5.93681">
        <ele>374.6</ele>
        <time>2024-02-19T14:13:21Z</time>
      </trkpt>
      <trkpt lat="48.19345" lon="5.93658">
        <ele>374.8</ele>
        <time>2024-02-19T14:13:29Z</time>
      </trkpt>
      <trkpt lat="48.19352" lon="5.93642">
        <ele>375.3</ele>
        <time>2024-02-19T14:13:37Z</time>
      </trkpt>
      <trkpt lat="48.19348" lon="5.93639">
        <ele>375.4</ele>
        <time>2024-02-19T14:13:39Z</time>
      </trkpt>
      <trkpt lat="48.19337" lon="5.93617">
        <ele>376</ele>
        <time>2024-02-19T14:13:47Z</time>
      </trkpt>
      <trkpt lat="48.19325" lon="5.93596">
        <ele>376.4</ele>
        <time>2024-02-19T14:13:54Z</time>
      </trkpt>
      <trkpt lat="48.19315" lon="5.93572">
        <ele>376.7</ele>
        <time>2024-02-19T14:14:01Z</time>
      </trkpt>
      <trkpt lat="48.19304" lon="5.93549">
        <ele>377.1</ele>
        <time>2024-02-19T14:14:08Z</time>
      </trkpt>
      <trkpt lat="48.19293" lon="5.93523">
        <ele>378.1</ele>
        <time>2024-02-19T14:14:15Z</time>
      </trkpt>
      <trkpt lat="48.19291" lon="5.93513">
        <ele>377.6</ele>
        <time>2024-02-19T14:14:18Z</time>
      </trkpt>
      <trkpt lat="48.19306" lon="5.93493">
        <ele>376.2</ele>
        <time>2024-02-19T14:14:26Z</time>
      </trkpt>
      <trkpt lat="48.19323" lon="5.93478">
        <ele>374.5</ele>
        <time>2024-02-19T14:14:34Z</time>
      </trkpt>
      <trkpt lat="48.19339" lon="5.93463">
        <ele>372.5</ele>
        <time>2024-02-19T14:14:43Z</time>
      </trkpt>
      <trkpt lat="48.19354" lon="5.93448">
        <ele>370.5</ele>
        <time>2024-02-19T14:14:49Z</time>
      </trkpt>
      <trkpt lat="48.19372" lon="5.93432">
        <ele>368.8</ele>
        <time>2024-02-19T14:14:55Z</time>
      </trkpt>
      <trkpt lat="48.19387" lon="5.93416">
        <ele>366.2</ele>
        <time>2024-02-19T14:15:01Z</time>
      </trkpt>
      <trkpt lat="48.19404" lon="5.93409">
        <ele>363.5</ele>
        <time>2024-02-19T14:15:14Z</time>
      </trkpt>
      <trkpt lat="48.19412" lon="5.93407">
        <ele>362.1</ele>
        <time>2024-02-19T14:15:20Z</time>
      </trkpt>
      <trkpt lat="48.19428" lon="5.93392">
        <ele>359.5</ele>
        <time>2024-02-19T14:15:29Z</time>
      </trkpt>
      <trkpt lat="48.19444" lon="5.93377">
        <ele>357.8</ele>
        <time>2024-02-19T14:15:37Z</time>
      </trkpt>
      <trkpt lat="48.19459" lon="5.93363">
        <ele>357.3</ele>
        <time>2024-02-19T14:15:46Z</time>
      </trkpt>
      <trkpt lat="48.19463" lon="5.93361">
        <ele>357</ele>
        <time>2024-02-19T14:15:48Z</time>
      </trkpt>
      <trkpt lat="48.19462" lon="5.93371">
        <ele>356.6</ele>
        <time>2024-02-19T14:16:43Z</time>
      </trkpt>
      <trkpt lat="48.19461" lon="5.93371">
        <ele>356.4</ele>
        <time>2024-02-19T14:16:44Z</time>
      </trkpt>
      <trkpt lat="48.19458" lon="5.93372">
        <ele>356.1</ele>
        <time>2024-02-19T14:16:46Z</time>
      </trkpt>
      <trkpt lat="48.1944" lon="5.93382">
        <ele>356.5</ele>
        <time>2024-02-19T14:16:55Z</time>
      </trkpt>
      <trkpt lat="48.19425" lon="5.93398">
        <ele>357.8</ele>
        <time>2024-02-19T14:17:04Z</time>
      </trkpt>
      <trkpt lat="48.1941" lon="5.93413">
        <ele>360</ele>
        <time>2024-02-19T14:17:14Z</time>
      </trkpt>
      <trkpt lat="48.19408" lon="5.93413">
        <ele>359.7</ele>
        <time>2024-02-19T14:17:16Z</time>
      </trkpt>
      <trkpt lat="48.19405" lon="5.93415">
        <ele>359.8</ele>
        <time>2024-02-19T14:17:18Z</time>
      </trkpt>
      <trkpt lat="48.19404" lon="5.93443">
        <ele>359.6</ele>
        <time>2024-02-19T14:17:26Z</time>
      </trkpt>
      <trkpt lat="48.19407" lon="5.9347">
        <ele>359.4</ele>
        <time>2024-02-19T14:17:33Z</time>
      </trkpt>
      <trkpt lat="48.19416" lon="5.93495">
        <ele>359.2</ele>
        <time>2024-02-19T14:17:40Z</time>
      </trkpt>
      <trkpt lat="48.19426" lon="5.93518">
        <ele>359</ele>
        <time>2024-02-19T14:17:47Z</time>
      </trkpt>
      <trkpt lat="48.19443" lon="5.93536">
        <ele>358.8</ele>
        <time>2024-02-19T14:17:55Z</time>
      </trkpt>
      <trkpt lat="48.19461" lon="5.93542">
        <ele>358.6</ele>
        <time>2024-02-19T14:18:02Z</time>
      </trkpt>
      <trkpt lat="48.19482" lon="5.9354">
        <ele>358.4</ele>
        <time>2024-02-19T14:18:09Z</time>
      </trkpt>
      <trkpt lat="48.195" lon="5.93535">
        <ele>357.6</ele>
        <time>2024-02-19T14:18:15Z</time>
      </trkpt>
      <trkpt lat="48.19515" lon="5.93519">
        <ele>356.9</ele>
        <time>2024-02-19T14:18:22Z</time>
      </trkpt>
      <trkpt lat="48.1953" lon="5.93502">
        <ele>356.9</ele>
        <time>2024-02-19T14:18:29Z</time>
      </trkpt>
      <trkpt lat="48.19543" lon="5.93481">
        <ele>357</ele>
        <time>2024-02-19T14:18:36Z</time>
      </trkpt>
      <trkpt lat="48.19558" lon="5.93464">
        <ele>357.2</ele>
        <time>2024-02-19T14:18:43Z</time>
      </trkpt>
      <trkpt lat="48.19572" lon="5.93446">
        <ele>357.2</ele>
        <time>2024-02-19T14:18:51Z</time>
      </trkpt>
      <trkpt lat="48.19575" lon="5.93438">
        <ele>357.3</ele>
        <time>2024-02-19T14:18:52Z</time>
      </trkpt>
      <trkpt lat="48.19576" lon="5.93409">
        <ele>357.9</ele>
        <time>2024-02-19T14:19:00Z</time>
      </trkpt>
      <trkpt lat="48.19575" lon="5.93379">
        <ele>358.4</ele>
        <time>2024-02-19T14:19:08Z</time>
      </trkpt>
      <trkpt lat="48.19569" lon="5.93352">
        <ele>358.9</ele>
        <time>2024-02-19T14:19:15Z</time>
      </trkpt>
      <trkpt lat="48.19559" lon="5.93328">
        <ele>359.5</ele>
        <time>2024-02-19T14:19:22Z</time>
      </trkpt>
      <trkpt lat="48.19548" lon="5.93307">
        <ele>360</ele>
        <time>2024-02-19T14:19:29Z</time>
      </trkpt>
      <trkpt lat="48.19532" lon="5.93291">
        <ele>360.5</ele>
        <time>2024-02-19T14:19:36Z</time>
      </trkpt>
      <trkpt lat="48.19517" lon="5.93287">
        <ele>360.9</ele>
        <time>2024-02-19T14:19:42Z</time>
      </trkpt>
      <trkpt lat="48.19516" lon="5.93292">
        <ele>360.1</ele>
        <time>2024-02-19T14:19:44Z</time>
      </trkpt>
      <trkpt lat="48.19529" lon="5.93314">
        <ele>358.9</ele>
        <time>2024-02-19T14:19:51Z</time>
      </trkpt>
      <trkpt lat="48.19545" lon="5.93329">
        <ele>358.9</ele>
        <time>2024-02-19T14:19:59Z</time>
      </trkpt>
      <trkpt lat="48.19558" lon="5.93353">
        <ele>358.9</ele>
        <time>2024-02-19T14:20:06Z</time>
      </trkpt>
      <trkpt lat="48.19564" lon="5.93382">
        <ele>358.9</ele>
        <time>2024-02-19T14:20:13Z</time>
      </trkpt>
      <trkpt lat="48.19562" lon="5.93412">
        <ele>359</ele>
        <time>2024-02-19T14:20:20Z</time>
      </trkpt>
      <trkpt lat="48.1955" lon="5.93435">
        <ele>359</ele>
        <time>2024-02-19T14:20:27Z</time>
      </trkpt>
      <trkpt lat="48.19534" lon="5.93453">
        <ele>359.1</ele>
        <time>2024-02-19T14:20:34Z</time>
      </trkpt>
      <trkpt lat="48.1952" lon="5.93468">
        <ele>359.2</ele>
        <time>2024-02-19T14:20:40Z</time>
      </trkpt>
      <trkpt lat="48.19504" lon="5.93484">
        <ele>359.1</ele>
        <time>2024-02-19T14:20:46Z</time>
      </trkpt>
      <trkpt lat="48.19488" lon="5.93501">
        <ele>359.2</ele>
        <time>2024-02-19T14:20:53Z</time>
      </trkpt>
      <trkpt lat="48.19481" lon="5.93525">
        <ele>359.2</ele>
        <time>2024-02-19T14:21:01Z</time>
      </trkpt>
      <trkpt lat="48.19483" lon="5.93537">
        <ele>359.2</ele>
        <time>2024-02-19T14:21:05Z</time>
      </trkpt>
      <trkpt lat="48.19487" lon="5.93539">
        <ele>359.2</ele>
        <time>2024-02-19T14:21:07Z</time>
      </trkpt>
      <trkpt lat="48.19506" lon="5.93531">
        <ele>359.2</ele>
        <time>2024-02-19T14:21:14Z</time>
      </trkpt>
      <trkpt lat="48.1952" lon="5.93513">
        <ele>359.1</ele>
        <time>2024-02-19T14:21:20Z</time>
      </trkpt>
      <trkpt lat="48.19534" lon="5.93495">
        <ele>359.2</ele>
        <time>2024-02-19T14:21:26Z</time>
      </trkpt>
      <trkpt lat="48.1955" lon="5.93476">
        <ele>359.2</ele>
        <time>2024-02-19T14:21:33Z</time>
      </trkpt>
      <trkpt lat="48.19565" lon="5.93458">
        <ele>359.1</ele>
        <time>2024-02-19T14:21:40Z</time>
      </trkpt>
      <trkpt lat="48.19575" lon="5.93434">
        <ele>359</ele>
        <time>2024-02-19T14:21:47Z</time>
      </trkpt>
      <trkpt lat="48.19576" lon="5.93405">
        <ele>359</ele>
        <time>2024-02-19T14:21:54Z</time>
      </trkpt>
      <trkpt lat="48.19575" lon="5.93377">
        <ele>359</ele>
        <time>2024-02-19T14:22:01Z</time>
      </trkpt>
      <trkpt lat="48.19569" lon="5.93351">
        <ele>358.9</ele>
        <time>2024-02-19T14:22:08Z</time>
      </trkpt>
      <trkpt lat="48.19558" lon="5.93327">
        <ele>358.9</ele>
        <time>2024-02-19T14:22:16Z</time>
      </trkpt>
      <trkpt lat="48.19544" lon="5.93306">
        <ele>358.9</ele>
        <time>2024-02-19T14:22:24Z</time>
      </trkpt>
      <trkpt lat="48.19528" lon="5.9329">
        <ele>358.9</ele>
        <time>2024-02-19T14:22:31Z</time>
      </trkpt>
      <trkpt lat="48.19516" lon="5.93284">
        <ele>358.9</ele>
        <time>2024-02-19T14:22:36Z</time>
      </trkpt>
      <trkpt lat="48.19527" lon="5.93309">
        <ele>358.9</ele>
        <time>2024-02-19T14:22:43Z</time>
      </trkpt>
      <trkpt lat="48.19541" lon="5.93327">
        <ele>358.9</ele>
        <time>2024-02-19T14:22:49Z</time>
      </trkpt>
      <trkpt lat="48.19555" lon="5.93347">
        <ele>358.9</ele>
        <time>2024-02-19T14:22:55Z</time>
      </trkpt>
      <trkpt lat="48.19562" lon="5.93374">
        <ele>359</ele>
        <time>2024-02-19T14:23:01Z</time>
      </trkpt>
      <trkpt lat="48.1956" lon="5.93404">
        <ele>359</ele>
        <time>2024-02-19T14:23:08Z</time>
      </trkpt>
      <trkpt lat="48.19547" lon="5.93426">
        <ele>359.1</ele>
        <time>2024-02-19T14:23:15Z</time>
      </trkpt>
      <trkpt lat="48.19532" lon="5.93442">
        <ele>359.1</ele>
        <time>2024-02-19T14:23:21Z</time>
      </trkpt>
      <trkpt lat="48.19517" lon="5.93458">
        <ele>359.2</ele>
        <time>2024-02-19T14:23:27Z</time>
      </trkpt>
      <trkpt lat="48.19501" lon="5.93477">
        <ele>359.1</ele>
        <time>2024-02-19T14:23:34Z</time>
      </trkpt>
      <trkpt lat="48.19484" lon="5.93496">
        <ele>359.2</ele>
        <time>2024-02-19T14:23:41Z</time>
      </trkpt>
      <trkpt lat="48.19465" lon="5.93504">
        <ele>359.2</ele>
        <time>2024-02-19T14:23:48Z</time>
      </trkpt>
      <trkpt lat="48.19446" lon="5.93499">
        <ele>359.3</ele>
        <time>2024-02-19T14:23:55Z</time>
      </trkpt>
      <trkpt lat="48.1943" lon="5.93481">
        <ele>359.3</ele>
        <time>2024-02-19T14:24:02Z</time>
      </trkpt>
      <trkpt lat="48.19421" lon="5.93455">
        <ele>359.3</ele>
        <time>2024-02-19T14:24:09Z</time>
      </trkpt>
      <trkpt lat="48.19421" lon="5.93439">
        <ele>359.3</ele>
        <time>2024-02-19T14:24:14Z</time>
      </trkpt>
      <trkpt lat="48.19425" lon="5.93411">
        <ele>359.3</ele>
        <time>2024-02-19T14:24:23Z</time>
      </trkpt>
      <trkpt lat="48.19437" lon="5.93393">
        <ele>359.2</ele>
        <time>2024-02-19T14:24:36Z</time>
      </trkpt>
      <trkpt lat="48.19454" lon="5.93381">
        <ele>359.2</ele>
        <time>2024-02-19T14:24:49Z</time>
      </trkpt>
      <trkpt lat="48.1947" lon="5.93365">
        <ele>359.2</ele>
        <time>2024-02-19T14:25:00Z</time>
      </trkpt>
      <trkpt lat="48.19485" lon="5.93348">
        <ele>359</ele>
        <time>2024-02-19T14:25:10Z</time>
      </trkpt>
      <trkpt lat="48.19499" lon="5.93328">
        <ele>359</ele>
        <time>2024-02-19T14:25:18Z</time>
      </trkpt>
      <trkpt lat="48.1951" lon="5.93314">
        <ele>359</ele>
        <time>2024-02-19T14:25:28Z</time>
      </trkpt>
      <trkpt lat="48.19494" lon="5.93329">
        <ele>359</ele>
        <time>2024-02-19T14:25:36Z</time>
      </trkpt>
      <trkpt lat="48.1948" lon="5.93347">
        <ele>359.1</ele>
        <time>2024-02-19T14:25:42Z</time>
      </trkpt>
      <trkpt lat="48.19464" lon="5.93362">
        <ele>359.2</ele>
        <time>2024-02-19T14:25:48Z</time>
      </trkpt>
      <trkpt lat="48.19448" lon="5.93376">
        <ele>359.2</ele>
        <time>2024-02-19T14:25:58Z</time>
      </trkpt>
      <trkpt lat="48.19432" lon="5.93392">
        <ele>359.3</ele>
        <time>2024-02-19T14:26:12Z</time>
      </trkpt>
      <trkpt lat="48.19421" lon="5.93409">
        <ele>359.3</ele>
        <time>2024-02-19T14:26:26Z</time>
      </trkpt>
      <trkpt lat="48.19437" lon="5.93391">
        <ele>359.2</ele>
        <time>2024-02-19T14:26:41Z</time>
      </trkpt>
      <trkpt lat="48.19452" lon="5.93374">
        <ele>359.2</ele>
        <time>2024-02-19T14:26:51Z</time>
      </trkpt>
      <trkpt lat="48.19467" lon="5.93358">
        <ele>359.2</ele>
        <time>2024-02-19T14:26:59Z</time>
      </trkpt>
      <trkpt lat="48.19485" lon="5.93345">
        <ele>359.1</ele>
        <time>2024-02-19T14:27:08Z</time>
      </trkpt>
      <trkpt lat="48.195" lon="5.93328">
        <ele>359</ele>
        <time>2024-02-19T14:27:16Z</time>
      </trkpt>
      <trkpt lat="48.19511" lon="5.93311">
        <ele>359</ele>
        <time>2024-02-19T14:27:27Z</time>
      </trkpt>
      <trkpt lat="48.19508" lon="5.93314">
        <ele>359</ele>
        <time>2024-02-19T14:27:30Z</time>
      </trkpt>
      <trkpt lat="48.19491" lon="5.93328">
        <ele>359</ele>
        <time>2024-02-19T14:27:40Z</time>
      </trkpt>
      <trkpt lat="48.19476" lon="5.93343">
        <ele>359.1</ele>
        <time>2024-02-19T14:27:47Z</time>
      </trkpt>
      <trkpt lat="48.19461" lon="5.93362">
        <ele>359.2</ele>
        <time>2024-02-19T14:27:54Z</time>
      </trkpt>
      <trkpt lat="48.19446" lon="5.93378">
        <ele>359.2</ele>
        <time>2024-02-19T14:28:01Z</time>
      </trkpt>
      <trkpt lat="48.19431" lon="5.93393">
        <ele>359.3</ele>
        <time>2024-02-19T14:28:08Z</time>
      </trkpt>
      <trkpt lat="48.1942" lon="5.93407">
        <ele>359.3</ele>
        <time>2024-02-19T14:28:14Z</time>
      </trkpt>
      <trkpt lat="48.19425" lon="5.93408">
        <ele>359.3</ele>
        <time>2024-02-19T14:28:18Z</time>
      </trkpt>
      <trkpt lat="48.19443" lon="5.93388">
        <ele>359.2</ele>
        <time>2024-02-19T14:28:24Z</time>
      </trkpt>
      <trkpt lat="48.19462" lon="5.93369">
        <ele>359.2</ele>
        <time>2024-02-19T14:28:28Z</time>
      </trkpt>
      <trkpt lat="48.19481" lon="5.93348">
        <ele>359.1</ele>
        <time>2024-02-19T14:28:32Z</time>
      </trkpt>
      <trkpt lat="48.19499" lon="5.93329">
        <ele>359</ele>
        <time>2024-02-19T14:28:36Z</time>
      </trkpt>
      <trkpt lat="48.19515" lon="5.93312">
        <ele>359</ele>
        <time>2024-02-19T14:28:42Z</time>
      </trkpt>
      <trkpt lat="48.19514" lon="5.93312">
        <ele>359</ele>
        <time>2024-02-19T14:28:46Z</time>
      </trkpt>
      <trkpt lat="48.19497" lon="5.93324">
        <ele>359</ele>
        <time>2024-02-19T14:29:01Z</time>
      </trkpt>
      <trkpt lat="48.1948" lon="5.93342">
        <ele>359.1</ele>
        <time>2024-02-19T14:29:09Z</time>
      </trkpt>
      <trkpt lat="48.19464" lon="5.9336">
        <ele>359.2</ele>
        <time>2024-02-19T14:29:13Z</time>
      </trkpt>
      <trkpt lat="48.19444" lon="5.9338">
        <ele>359.2</ele>
        <time>2024-02-19T14:29:17Z</time>
      </trkpt>
      <trkpt lat="48.19427" lon="5.93399">
        <ele>359.3</ele>
        <time>2024-02-19T14:29:21Z</time>
      </trkpt>
      <trkpt lat="48.19413" lon="5.93413">
        <ele>359.3</ele>
        <time>2024-02-19T14:29:29Z</time>
      </trkpt>
      <trkpt lat="48.1943" lon="5.93396">
        <ele>359.3</ele>
        <time>2024-02-19T14:29:41Z</time>
      </trkpt>
      <trkpt lat="48.1943" lon="5.93393">
        <ele>359.3</ele>
        <time>2024-02-19T14:29:42Z</time>
      </trkpt>
      <trkpt lat="48.19438" lon="5.93381">
        <ele>359.3</ele>
        <time>2024-02-19T14:30:16Z</time>
      </trkpt>
      <trkpt lat="48.19439" lon="5.9338">
        <ele>359.3</ele>
        <time>2024-02-19T14:30:17Z</time>
      </trkpt>
      <trkpt lat="48.19458" lon="5.93376">
        <ele>359.3</ele>
        <time>2024-02-19T14:30:23Z</time>
      </trkpt>
      <trkpt lat="48.19465" lon="5.93375">
        <ele>359.3</ele>
        <time>2024-02-19T14:30:26Z</time>
      </trkpt>
      <trkpt lat="48.1944" lon="5.93396">
        <ele>359.2</ele>
        <time>2024-02-19T14:32:13Z</time>
      </trkpt>
      <trkpt lat="48.19439" lon="5.93396">
        <ele>359.2</ele>
        <time>2024-02-19T14:32:16Z</time>
      </trkpt>
      <trkpt lat="48.19428" lon="5.93413">
        <ele>359.3</ele>
        <time>2024-02-19T14:32:21Z</time>
      </trkpt>
      <trkpt lat="48.19425" lon="5.93435">
        <ele>359.3</ele>
        <time>2024-02-19T14:32:23Z</time>
      </trkpt>
      <trkpt lat="48.19425" lon="5.93443">
        <ele>359.3</ele>
        <time>2024-02-19T14:32:25Z</time>
      </trkpt>
      <trkpt lat="48.19434" lon="5.93471">
        <ele>359.3</ele>
        <time>2024-02-19T14:32:29Z</time>
      </trkpt>
      <trkpt lat="48.19442" lon="5.93483">
        <ele>359.3</ele>
        <time>2024-02-19T14:32:31Z</time>
      </trkpt>
      <trkpt lat="48.19454" lon="5.93495">
        <ele>359.3</ele>
        <time>2024-02-19T14:32:34Z</time>
      </trkpt>
      <trkpt lat="48.19464" lon="5.93499">
        <ele>359.2</ele>
        <time>2024-02-19T14:32:36Z</time>
      </trkpt>
      <trkpt lat="48.19474" lon="5.93498">
        <ele>359.2</ele>
        <time>2024-02-19T14:32:38Z</time>
      </trkpt>
      <trkpt lat="48.19484" lon="5.93492">
        <ele>359.2</ele>
        <time>2024-02-19T14:32:40Z</time>
      </trkpt>
      <trkpt lat="48.195" lon="5.93475">
        <ele>359.1</ele>
        <time>2024-02-19T14:32:44Z</time>
      </trkpt>
      <trkpt lat="48.19515" lon="5.93459">
        <ele>359.2</ele>
        <time>2024-02-19T14:32:48Z</time>
      </trkpt>
      <trkpt lat="48.1953" lon="5.93442">
        <ele>359.1</ele>
        <time>2024-02-19T14:32:52Z</time>
      </trkpt>
      <trkpt lat="48.19547" lon="5.93421">
        <ele>359</ele>
        <time>2024-02-19T14:32:57Z</time>
      </trkpt>
      <trkpt lat="48.1955" lon="5.93416">
        <ele>359</ele>
        <time>2024-02-19T14:32:58Z</time>
      </trkpt>
      <trkpt lat="48.19555" lon="5.93404">
        <ele>359</ele>
        <time>2024-02-19T14:33:00Z</time>
      </trkpt>
      <trkpt lat="48.19558" lon="5.93383">
        <ele>359</ele>
        <time>2024-02-19T14:33:03Z</time>
      </trkpt>
      <trkpt lat="48.19557" lon="5.93369">
        <ele>358.9</ele>
        <time>2024-02-19T14:33:05Z</time>
      </trkpt>
      <trkpt lat="48.19553" lon="5.93355">
        <ele>358.9</ele>
        <time>2024-02-19T14:33:07Z</time>
      </trkpt>
      <trkpt lat="48.19541" lon="5.93332">
        <ele>358.9</ele>
        <time>2024-02-19T14:33:11Z</time>
      </trkpt>
      <trkpt lat="48.19537" lon="5.93327">
        <ele>358.9</ele>
        <time>2024-02-19T14:33:12Z</time>
      </trkpt>
      <trkpt lat="48.19529" lon="5.9332">
        <ele>358.9</ele>
        <time>2024-02-19T14:33:14Z</time>
      </trkpt>
      <trkpt lat="48.19519" lon="5.93317">
        <ele>358.9</ele>
        <time>2024-02-19T14:33:16Z</time>
      </trkpt>
      <trkpt lat="48.19509" lon="5.93317">
        <ele>359</ele>
        <time>2024-02-19T14:33:18Z</time>
      </trkpt>
      <trkpt lat="48.19496" lon="5.93326">
        <ele>359</ele>
        <time>2024-02-19T14:33:21Z</time>
      </trkpt>
      <trkpt lat="48.1948" lon="5.93342">
        <ele>359</ele>
        <time>2024-02-19T14:33:25Z</time>
      </trkpt>
      <trkpt lat="48.19464" lon="5.93359">
        <ele>359.1</ele>
        <time>2024-02-19T14:33:29Z</time>
      </trkpt>
      <trkpt lat="48.1946" lon="5.93364">
        <ele>359.1</ele>
        <time>2024-02-19T14:33:30Z</time>
      </trkpt>
      <trkpt lat="48.19445" lon="5.93382">
        <ele>359.2</ele>
        <time>2024-02-19T14:33:34Z</time>
      </trkpt>
      <trkpt lat="48.19434" lon="5.93395">
        <ele>359.2</ele>
        <time>2024-02-19T14:33:37Z</time>
      </trkpt>
      <trkpt lat="48.19422" lon="5.93407">
        <ele>359.2</ele>
        <time>2024-02-19T14:33:42Z</time>
      </trkpt>
      <trkpt lat="48.19438" lon="5.93395">
        <ele>359.3</ele>
        <time>2024-02-19T14:33:52Z</time>
      </trkpt>
      <trkpt lat="48.19442" lon="5.93391">
        <ele>359.3</ele>
        <time>2024-02-19T14:33:57Z</time>
      </trkpt>
      <trkpt lat="48.1944" lon="5.93394">
        <ele>359.3</ele>
        <time>2024-02-19T14:34:08Z</time>
      </trkpt>
      <trkpt lat="48.19435" lon="5.934">
        <ele>359.3</ele>
        <time>2024-02-19T14:34:11Z</time>
      </trkpt>
      <trkpt lat="48.19427" lon="5.93421">
        <ele>359.3</ele>
        <time>2024-02-19T14:34:14Z</time>
      </trkpt>
      <trkpt lat="48.19427" lon="5.93438">
        <ele>359.3</ele>
        <time>2024-02-19T14:34:16Z</time>
      </trkpt>
      <trkpt lat="48.19434" lon="5.9347">
        <ele>359.3</ele>
        <time>2024-02-19T14:34:20Z</time>
      </trkpt>
      <trkpt lat="48.19441" lon="5.93482">
        <ele>359.3</ele>
        <time>2024-02-19T14:34:22Z</time>
      </trkpt>
      <trkpt lat="48.19454" lon="5.93494">
        <ele>359.3</ele>
        <time>2024-02-19T14:34:25Z</time>
      </trkpt>
      <trkpt lat="48.19464" lon="5.93498">
        <ele>359.2</ele>
        <time>2024-02-19T14:34:27Z</time>
      </trkpt>
      <trkpt lat="48.19474" lon="5.93497">
        <ele>359.2</ele>
        <time>2024-02-19T14:34:29Z</time>
      </trkpt>
      <trkpt lat="48.19483" lon="5.93491">
        <ele>359.2</ele>
        <time>2024-02-19T14:34:31Z</time>
      </trkpt>
      <trkpt lat="48.19501" lon="5.93472">
        <ele>359.1</ele>
        <time>2024-02-19T14:34:35Z</time>
      </trkpt>
      <trkpt lat="48.19519" lon="5.93453">
        <ele>359.2</ele>
        <time>2024-02-19T14:34:39Z</time>
      </trkpt>
      <trkpt lat="48.19536" lon="5.93435">
        <ele>359.1</ele>
        <time>2024-02-19T14:34:43Z</time>
      </trkpt>
      <trkpt lat="48.19552" lon="5.93417">
        <ele>359</ele>
        <time>2024-02-19T14:34:47Z</time>
      </trkpt>
      <trkpt lat="48.19558" lon="5.93405">
        <ele>359</ele>
        <time>2024-02-19T14:34:48Z</time>
      </trkpt>
      <trkpt lat="48.19561" lon="5.93398">
        <ele>359</ele>
        <time>2024-02-19T14:34:50Z</time>
      </trkpt>
      <trkpt lat="48.19562" lon="5.93383">
        <ele>359</ele>
        <time>2024-02-19T14:34:52Z</time>
      </trkpt>
      <trkpt lat="48.1956" lon="5.93368">
        <ele>358.9</ele>
        <time>2024-02-19T14:34:54Z</time>
      </trkpt>
      <trkpt lat="48.19556" lon="5.93353">
        <ele>358.9</ele>
        <time>2024-02-19T14:34:56Z</time>
      </trkpt>
      <trkpt lat="48.19545" lon="5.93334">
        <ele>358.9</ele>
        <time>2024-02-19T14:34:59Z</time>
      </trkpt>
      <trkpt lat="48.19536" lon="5.93324">
        <ele>358.9</ele>
        <time>2024-02-19T14:35:01Z</time>
      </trkpt>
      <trkpt lat="48.1952" lon="5.93317">
        <ele>358.9</ele>
        <time>2024-02-19T14:35:04Z</time>
      </trkpt>
      <trkpt lat="48.19509" lon="5.93317">
        <ele>359</ele>
        <time>2024-02-19T14:35:06Z</time>
      </trkpt>
      <trkpt lat="48.19499" lon="5.93324">
        <ele>359</ele>
        <time>2024-02-19T14:35:08Z</time>
      </trkpt>
      <trkpt lat="48.19481" lon="5.93343">
        <ele>359</ele>
        <time>2024-02-19T14:35:12Z</time>
      </trkpt>
      <trkpt lat="48.19464" lon="5.93361">
        <ele>359.1</ele>
        <time>2024-02-19T14:35:16Z</time>
      </trkpt>
      <trkpt lat="48.19447" lon="5.9338">
        <ele>359.2</ele>
        <time>2024-02-19T14:35:20Z</time>
      </trkpt>
      <trkpt lat="48.19438" lon="5.9339">
        <ele>359.2</ele>
        <time>2024-02-19T14:35:21Z</time>
      </trkpt>
      <trkpt lat="48.19422" lon="5.93406">
        <ele>359.2</ele>
        <time>2024-02-19T14:35:27Z</time>
      </trkpt>
      <trkpt lat="48.19422" lon="5.93404">
        <ele>359.2</ele>
        <time>2024-02-19T14:35:30Z</time>
      </trkpt>
      <trkpt lat="48.19439" lon="5.93398">
        <ele>359.3</ele>
        <time>2024-02-19T14:35:42Z</time>
      </trkpt>
      <trkpt lat="48.19441" lon="5.93395">
        <ele>359.3</ele>
        <time>2024-02-19T14:35:52Z</time>
      </trkpt>
      <trkpt lat="48.19428" lon="5.93421">
        <ele>359.3</ele>
        <time>2024-02-19T14:35:59Z</time>
      </trkpt>
      <trkpt lat="48.19427" lon="5.93436">
        <ele>359.3</ele>
        <time>2024-02-19T14:36:01Z</time>
      </trkpt>
      <trkpt lat="48.19429" lon="5.93451">
        <ele>359.3</ele>
        <time>2024-02-19T14:36:03Z</time>
      </trkpt>
      <trkpt lat="48.19432" lon="5.93466">
        <ele>359.3</ele>
        <time>2024-02-19T14:36:05Z</time>
      </trkpt>
      <trkpt lat="48.19438" lon="5.93478">
        <ele>359.3</ele>
        <time>2024-02-19T14:36:07Z</time>
      </trkpt>
      <trkpt lat="48.1945" lon="5.93493">
        <ele>359.3</ele>
        <time>2024-02-19T14:36:10Z</time>
      </trkpt>
      <trkpt lat="48.19459" lon="5.935">
        <ele>359.3</ele>
        <time>2024-02-19T14:36:12Z</time>
      </trkpt>
      <trkpt lat="48.19469" lon="5.93501">
        <ele>359.2</ele>
        <time>2024-02-19T14:36:14Z</time>
      </trkpt>
      <trkpt lat="48.19479" lon="5.93498">
        <ele>359.2</ele>
        <time>2024-02-19T14:36:16Z</time>
      </trkpt>
      <trkpt lat="48.19496" lon="5.93481">
        <ele>359.1</ele>
        <time>2024-02-19T14:36:20Z</time>
      </trkpt>
      <trkpt lat="48.19512" lon="5.93463">
        <ele>359.2</ele>
        <time>2024-02-19T14:36:24Z</time>
      </trkpt>
      <trkpt lat="48.19527" lon="5.93446">
        <ele>359.1</ele>
        <time>2024-02-19T14:36:28Z</time>
      </trkpt>
      <trkpt lat="48.19542" lon="5.93429">
        <ele>359.1</ele>
        <time>2024-02-19T14:36:32Z</time>
      </trkpt>
      <trkpt lat="48.19553" lon="5.93415">
        <ele>359</ele>
        <time>2024-02-19T14:36:35Z</time>
      </trkpt>
      <trkpt lat="48.19559" lon="5.93403">
        <ele>359</ele>
        <time>2024-02-19T14:36:37Z</time>
      </trkpt>
      <trkpt lat="48.19561" lon="5.93389">
        <ele>359</ele>
        <time>2024-02-19T14:36:39Z</time>
      </trkpt>
      <trkpt lat="48.19561" lon="5.93374">
        <ele>358.9</ele>
        <time>2024-02-19T14:36:41Z</time>
      </trkpt>
      <trkpt lat="48.19558" lon="5.9336">
        <ele>358.9</ele>
        <time>2024-02-19T14:36:43Z</time>
      </trkpt>
      <trkpt lat="48.19553" lon="5.93347">
        <ele>358.9</ele>
        <time>2024-02-19T14:36:45Z</time>
      </trkpt>
      <trkpt lat="48.19547" lon="5.93336">
        <ele>358.9</ele>
        <time>2024-02-19T14:36:47Z</time>
      </trkpt>
      <trkpt lat="48.19539" lon="5.93326">
        <ele>358.9</ele>
        <time>2024-02-19T14:36:49Z</time>
      </trkpt>
      <trkpt lat="48.19525" lon="5.93318">
        <ele>358.9</ele>
        <time>2024-02-19T14:36:52Z</time>
      </trkpt>
      <trkpt lat="48.19514" lon="5.93317">
        <ele>358.9</ele>
        <time>2024-02-19T14:36:54Z</time>
      </trkpt>
      <trkpt lat="48.19499" lon="5.93324">
        <ele>359</ele>
        <time>2024-02-19T14:36:57Z</time>
      </trkpt>
      <trkpt lat="48.19481" lon="5.93341">
        <ele>359</ele>
        <time>2024-02-19T14:37:01Z</time>
      </trkpt>
      <trkpt lat="48.19464" lon="5.93358">
        <ele>359.1</ele>
        <time>2024-02-19T14:37:05Z</time>
      </trkpt>
      <trkpt lat="48.19448" lon="5.93376">
        <ele>359.2</ele>
        <time>2024-02-19T14:37:09Z</time>
      </trkpt>
      <trkpt lat="48.19433" lon="5.93394">
        <ele>359.2</ele>
        <time>2024-02-19T14:37:13Z</time>
      </trkpt>
      <trkpt lat="48.19427" lon="5.93402">
        <ele>359.2</ele>
        <time>2024-02-19T14:37:15Z</time>
      </trkpt>
      <trkpt lat="48.19423" lon="5.93405">
        <ele>359.2</ele>
        <time>2024-02-19T14:37:17Z</time>
      </trkpt>
      <trkpt lat="48.19422" lon="5.93404">
        <ele>359.2</ele>
        <time>2024-02-19T14:37:19Z</time>
      </trkpt>
      <trkpt lat="48.19426" lon="5.93403">
        <ele>359.2</ele>
        <time>2024-02-19T14:37:22Z</time>
      </trkpt>
      <trkpt lat="48.19444" lon="5.93393">
        <ele>359.3</ele>
        <time>2024-02-19T14:37:33Z</time>
      </trkpt>
      <trkpt lat="48.19445" lon="5.93392">
        <ele>359.3</ele>
        <time>2024-02-19T14:37:34Z</time>
      </trkpt>
      <trkpt lat="48.19441" lon="5.93397">
        <ele>359.3</ele>
        <time>2024-02-19T14:37:44Z</time>
      </trkpt>
      <trkpt lat="48.1943" lon="5.93421">
        <ele>359.3</ele>
        <time>2024-02-19T14:37:50Z</time>
      </trkpt>
      <trkpt lat="48.19429" lon="5.93428">
        <ele>359.3</ele>
        <time>2024-02-19T14:37:51Z</time>
      </trkpt>
      <trkpt lat="48.1943" lon="5.93445">
        <ele>359.3</ele>
        <time>2024-02-19T14:37:53Z</time>
      </trkpt>
      <trkpt lat="48.19433" lon="5.93461">
        <ele>359.3</ele>
        <time>2024-02-19T14:37:55Z</time>
      </trkpt>
      <trkpt lat="48.19438" lon="5.93474">
        <ele>359.3</ele>
        <time>2024-02-19T14:37:57Z</time>
      </trkpt>
      <trkpt lat="48.19446" lon="5.93484">
        <ele>359.3</ele>
        <time>2024-02-19T14:37:59Z</time>
      </trkpt>
      <trkpt lat="48.19455" lon="5.93493">
        <ele>359.3</ele>
        <time>2024-02-19T14:38:01Z</time>
      </trkpt>
      <trkpt lat="48.19465" lon="5.93497">
        <ele>359.2</ele>
        <time>2024-02-19T14:38:03Z</time>
      </trkpt>
      <trkpt lat="48.19476" lon="5.93497">
        <ele>359.2</ele>
        <time>2024-02-19T14:38:05Z</time>
      </trkpt>
      <trkpt lat="48.19485" lon="5.9349">
        <ele>359.2</ele>
        <time>2024-02-19T14:38:07Z</time>
      </trkpt>
      <trkpt lat="48.19504" lon="5.9347">
        <ele>359.1</ele>
        <time>2024-02-19T14:38:11Z</time>
      </trkpt>
      <trkpt lat="48.19522" lon="5.9345">
        <ele>359.2</ele>
        <time>2024-02-19T14:38:15Z</time>
      </trkpt>
      <trkpt lat="48.19539" lon="5.93432">
        <ele>359.1</ele>
        <time>2024-02-19T14:38:19Z</time>
      </trkpt>
      <trkpt lat="48.19554" lon="5.93412">
        <ele>359</ele>
        <time>2024-02-19T14:38:23Z</time>
      </trkpt>
      <trkpt lat="48.19557" lon="5.93406">
        <ele>359</ele>
        <time>2024-02-19T14:38:24Z</time>
      </trkpt>
      <trkpt lat="48.19561" lon="5.93391">
        <ele>359</ele>
        <time>2024-02-19T14:38:26Z</time>
      </trkpt>
      <trkpt lat="48.19561" lon="5.93375">
        <ele>358.9</ele>
        <time>2024-02-19T14:38:28Z</time>
      </trkpt>
      <trkpt lat="48.19557" lon="5.93359">
        <ele>358.9</ele>
        <time>2024-02-19T14:38:30Z</time>
      </trkpt>
      <trkpt lat="48.19551" lon="5.93346">
        <ele>358.9</ele>
        <time>2024-02-19T14:38:32Z</time>
      </trkpt>
      <trkpt lat="48.19544" lon="5.93334">
        <ele>358.9</ele>
        <time>2024-02-19T14:38:34Z</time>
      </trkpt>
      <trkpt lat="48.19524" lon="5.93319">
        <ele>358.9</ele>
        <time>2024-02-19T14:38:38Z</time>
      </trkpt>
      <trkpt lat="48.19513" lon="5.93317">
        <ele>359</ele>
        <time>2024-02-19T14:38:40Z</time>
      </trkpt>
      <trkpt lat="48.19498" lon="5.93326">
        <ele>359</ele>
        <time>2024-02-19T14:38:43Z</time>
      </trkpt>
      <trkpt lat="48.19479" lon="5.93346">
        <ele>359.1</ele>
        <time>2024-02-19T14:38:47Z</time>
      </trkpt>
      <trkpt lat="48.19462" lon="5.93365">
        <ele>359.2</ele>
        <time>2024-02-19T14:38:51Z</time>
      </trkpt>
      <trkpt lat="48.19444" lon="5.93385">
        <ele>359.2</ele>
        <time>2024-02-19T14:38:55Z</time>
      </trkpt>
      <trkpt lat="48.1944" lon="5.9339">
        <ele>359.2</ele>
        <time>2024-02-19T14:38:56Z</time>
      </trkpt>
      <trkpt lat="48.19425" lon="5.93405">
        <ele>359.3</ele>
        <time>2024-02-19T14:39:00Z</time>
      </trkpt>
      <trkpt lat="48.19419" lon="5.9341">
        <ele>359.3</ele>
        <time>2024-02-19T14:39:04Z</time>
      </trkpt>
      <trkpt lat="48.19436" lon="5.93402">
        <ele>359.2</ele>
        <time>2024-02-19T14:39:17Z</time>
      </trkpt>
      <trkpt lat="48.19445" lon="5.93391">
        <ele>359.2</ele>
        <time>2024-02-19T14:39:27Z</time>
      </trkpt>
      <trkpt lat="48.19459" lon="5.93375">
        <ele>359.2</ele>
        <time>2024-02-19T14:39:41Z</time>
      </trkpt>
      <trkpt lat="48.19459" lon="5.9337">
        <ele>359.2</ele>
        <time>2024-02-19T14:39:44Z</time>
      </trkpt>
      <trkpt lat="48.1947" lon="5.93368">
        <ele>359.1</ele>
        <time>2024-02-19T14:39:51Z</time>
      </trkpt>
      <trkpt lat="48.19485" lon="5.93352">
        <ele>359</ele>
        <time>2024-02-19T14:40:00Z</time>
      </trkpt>
      <trkpt lat="48.19499" lon="5.93334">
        <ele>359</ele>
        <time>2024-02-19T14:40:09Z</time>
      </trkpt>
      <trkpt lat="48.19504" lon="5.93327">
        <ele>359</ele>
        <time>2024-02-19T14:40:13Z</time>
      </trkpt>
      <trkpt lat="48.19488" lon="5.93339">
        <ele>359</ele>
        <time>2024-02-19T14:40:20Z</time>
      </trkpt>
      <trkpt lat="48.19474" lon="5.9336">
        <ele>359.1</ele>
        <time>2024-02-19T14:40:27Z</time>
      </trkpt>
      <trkpt lat="48.19462" lon="5.93372">
        <ele>359.2</ele>
        <time>2024-02-19T14:40:35Z</time>
      </trkpt>
      <trkpt lat="48.19457" lon="5.93373">
        <ele>359.2</ele>
        <time>2024-02-19T14:40:41Z</time>
      </trkpt>
      <trkpt lat="48.19459" lon="5.93373">
        <ele>359.2</ele>
        <time>2024-02-19T14:40:47Z</time>
      </trkpt>
      <trkpt lat="48.19462" lon="5.9337">
        <ele>359.2</ele>
        <time>2024-02-19T14:40:55Z</time>
      </trkpt>
      <trkpt lat="48.19454" lon="5.93379">
        <ele>359.2</ele>
        <time>2024-02-19T14:41:04Z</time>
      </trkpt>
      <trkpt lat="48.19452" lon="5.93381">
        <ele>359.2</ele>
        <time>2024-02-19T14:41:47Z</time>
      </trkpt>
      <trkpt lat="48.1944" lon="5.93394">
        <ele>359.3</ele>
        <time>2024-02-19T14:41:58Z</time>
      </trkpt>
      <trkpt lat="48.19428" lon="5.93417">
        <ele>359.3</ele>
        <time>2024-02-19T14:42:04Z</time>
      </trkpt>
      <trkpt lat="48.19427" lon="5.93433">
        <ele>359.3</ele>
        <time>2024-02-19T14:42:06Z</time>
      </trkpt>
      <trkpt lat="48.19429" lon="5.93448">
        <ele>359.3</ele>
        <time>2024-02-19T14:42:08Z</time>
      </trkpt>
      <trkpt lat="48.19436" lon="5.93469">
        <ele>359.3</ele>
        <time>2024-02-19T14:42:11Z</time>
      </trkpt>
      <trkpt lat="48.19442" lon="5.9348">
        <ele>359.3</ele>
        <time>2024-02-19T14:42:13Z</time>
      </trkpt>
      <trkpt lat="48.1945" lon="5.9349">
        <ele>359.3</ele>
        <time>2024-02-19T14:42:15Z</time>
      </trkpt>
      <trkpt lat="48.19459" lon="5.93496">
        <ele>359.3</ele>
        <time>2024-02-19T14:42:17Z</time>
      </trkpt>
      <trkpt lat="48.19468" lon="5.93498">
        <ele>359.2</ele>
        <time>2024-02-19T14:42:19Z</time>
      </trkpt>
      <trkpt lat="48.19478" lon="5.93496">
        <ele>359.2</ele>
        <time>2024-02-19T14:42:21Z</time>
      </trkpt>
      <trkpt lat="48.19487" lon="5.93489">
        <ele>359.2</ele>
        <time>2024-02-19T14:42:23Z</time>
      </trkpt>
      <trkpt lat="48.19504" lon="5.93472">
        <ele>359.1</ele>
        <time>2024-02-19T14:42:27Z</time>
      </trkpt>
      <trkpt lat="48.1952" lon="5.93455">
        <ele>359.2</ele>
        <time>2024-02-19T14:42:31Z</time>
      </trkpt>
      <trkpt lat="48.19536" lon="5.93438">
        <ele>359.1</ele>
        <time>2024-02-19T14:42:35Z</time>
      </trkpt>
      <trkpt lat="48.19551" lon="5.9342">
        <ele>359</ele>
        <time>2024-02-19T14:42:39Z</time>
      </trkpt>
      <trkpt lat="48.1956" lon="5.93403">
        <ele>359</ele>
        <time>2024-02-19T14:42:42Z</time>
      </trkpt>
      <trkpt lat="48.19564" lon="5.93389">
        <ele>359</ele>
        <time>2024-02-19T14:42:44Z</time>
      </trkpt>
      <trkpt lat="48.19565" lon="5.93375">
        <ele>358.9</ele>
        <time>2024-02-19T14:42:46Z</time>
      </trkpt>
      <trkpt lat="48.19562" lon="5.93361">
        <ele>358.9</ele>
        <time>2024-02-19T14:42:48Z</time>
      </trkpt>
      <trkpt lat="48.19557" lon="5.93349">
        <ele>358.9</ele>
        <time>2024-02-19T14:42:50Z</time>
      </trkpt>
      <trkpt lat="48.1955" lon="5.93337">
        <ele>358.9</ele>
        <time>2024-02-19T14:42:52Z</time>
      </trkpt>
      <trkpt lat="48.19542" lon="5.93328">
        <ele>358.9</ele>
        <time>2024-02-19T14:42:54Z</time>
      </trkpt>
      <trkpt lat="48.19527" lon="5.93317">
        <ele>358.9</ele>
        <time>2024-02-19T14:42:57Z</time>
      </trkpt>
      <trkpt lat="48.19517" lon="5.93315">
        <ele>358.9</ele>
        <time>2024-02-19T14:42:59Z</time>
      </trkpt>
      <trkpt lat="48.19507" lon="5.93318">
        <ele>359</ele>
        <time>2024-02-19T14:43:01Z</time>
      </trkpt>
      <trkpt lat="48.19498" lon="5.93325">
        <ele>359</ele>
        <time>2024-02-19T14:43:03Z</time>
      </trkpt>
      <trkpt lat="48.1948" lon="5.93344">
        <ele>359</ele>
        <time>2024-02-19T14:43:07Z</time>
      </trkpt>
      <trkpt lat="48.19463" lon="5.93362">
        <ele>359.1</ele>
        <time>2024-02-19T14:43:11Z</time>
      </trkpt>
      <trkpt lat="48.19444" lon="5.93382">
        <ele>359.2</ele>
        <time>2024-02-19T14:43:15Z</time>
      </trkpt>
      <trkpt lat="48.19432" lon="5.93396">
        <ele>359.2</ele>
        <time>2024-02-19T14:43:18Z</time>
      </trkpt>
      <trkpt lat="48.19427" lon="5.93404">
        <ele>359.2</ele>
        <time>2024-02-19T14:43:20Z</time>
      </trkpt>
      <trkpt lat="48.19429" lon="5.93406">
        <ele>359.2</ele>
        <time>2024-02-19T14:43:23Z</time>
      </trkpt>
      <trkpt lat="48.19447" lon="5.93387">
        <ele>359.3</ele>
        <time>2024-02-19T14:43:29Z</time>
      </trkpt>
      <trkpt lat="48.19452" lon="5.93383">
        <ele>359.3</ele>
        <time>2024-02-19T14:43:34Z</time>
      </trkpt>
      <trkpt lat="48.1944" lon="5.93399">
        <ele>359.3</ele>
        <time>2024-02-19T14:43:45Z</time>
      </trkpt>
      <trkpt lat="48.19441" lon="5.93397">
        <ele>359.3</ele>
        <time>2024-02-19T14:43:52Z</time>
      </trkpt>
      <trkpt lat="48.19435" lon="5.93404">
        <ele>359.3</ele>
        <time>2024-02-19T14:43:55Z</time>
      </trkpt>
      <trkpt lat="48.19427" lon="5.93433">
        <ele>359.3</ele>
        <time>2024-02-19T14:43:59Z</time>
      </trkpt>
      <trkpt lat="48.19427" lon="5.93441">
        <ele>359.3</ele>
        <time>2024-02-19T14:44:00Z</time>
      </trkpt>
      <trkpt lat="48.1943" lon="5.93457">
        <ele>359.3</ele>
        <time>2024-02-19T14:44:02Z</time>
      </trkpt>
      <trkpt lat="48.19436" lon="5.93472">
        <ele>359.3</ele>
        <time>2024-02-19T14:44:04Z</time>
      </trkpt>
      <trkpt lat="48.19444" lon="5.93484">
        <ele>359.3</ele>
        <time>2024-02-19T14:44:06Z</time>
      </trkpt>
      <trkpt lat="48.19453" lon="5.93493">
        <ele>359.3</ele>
        <time>2024-02-19T14:44:08Z</time>
      </trkpt>
      <trkpt lat="48.19463" lon="5.93497">
        <ele>359.2</ele>
        <time>2024-02-19T14:44:10Z</time>
      </trkpt>
      <trkpt lat="48.19474" lon="5.93497">
        <ele>359.2</ele>
        <time>2024-02-19T14:44:12Z</time>
      </trkpt>
      <trkpt lat="48.19484" lon="5.9349">
        <ele>359.2</ele>
        <time>2024-02-19T14:44:14Z</time>
      </trkpt>
      <trkpt lat="48.19504" lon="5.93471">
        <ele>359.1</ele>
        <time>2024-02-19T14:44:18Z</time>
      </trkpt>
      <trkpt lat="48.19522" lon="5.93451">
        <ele>359.2</ele>
        <time>2024-02-19T14:44:22Z</time>
      </trkpt>
      <trkpt lat="48.19539" lon="5.93432">
        <ele>359.1</ele>
        <time>2024-02-19T14:44:26Z</time>
      </trkpt>
      <trkpt lat="48.19555" lon="5.9341">
        <ele>359</ele>
        <time>2024-02-19T14:44:30Z</time>
      </trkpt>
      <trkpt lat="48.1956" lon="5.93396">
        <ele>359</ele>
        <time>2024-02-19T14:44:32Z</time>
      </trkpt>
      <trkpt lat="48.19561" lon="5.93379">
        <ele>358.9</ele>
        <time>2024-02-19T14:44:34Z</time>
      </trkpt>
      <trkpt lat="48.19559" lon="5.93363">
        <ele>358.9</ele>
        <time>2024-02-19T14:44:36Z</time>
      </trkpt>
      <trkpt lat="48.19554" lon="5.93349">
        <ele>358.9</ele>
        <time>2024-02-19T14:44:38Z</time>
      </trkpt>
      <trkpt lat="48.19542" lon="5.93331">
        <ele>358.9</ele>
        <time>2024-02-19T14:44:41Z</time>
      </trkpt>
      <trkpt lat="48.19534" lon="5.93322">
        <ele>358.9</ele>
        <time>2024-02-19T14:44:43Z</time>
      </trkpt>
      <trkpt lat="48.19523" lon="5.93316">
        <ele>358.9</ele>
        <time>2024-02-19T14:44:45Z</time>
      </trkpt>
      <trkpt lat="48.19512" lon="5.93316">
        <ele>359</ele>
        <time>2024-02-19T14:44:47Z</time>
      </trkpt>
      <trkpt lat="48.19502" lon="5.93322">
        <ele>359</ele>
        <time>2024-02-19T14:44:49Z</time>
      </trkpt>
      <trkpt lat="48.19486" lon="5.93337">
        <ele>359</ele>
        <time>2024-02-19T14:44:52Z</time>
      </trkpt>
      <trkpt lat="48.19468" lon="5.93357">
        <ele>359.1</ele>
        <time>2024-02-19T14:44:56Z</time>
      </trkpt>
      <trkpt lat="48.1945" lon="5.93378">
        <ele>359.2</ele>
        <time>2024-02-19T14:45:00Z</time>
      </trkpt>
      <trkpt lat="48.19436" lon="5.93392">
        <ele>359.2</ele>
        <time>2024-02-19T14:45:03Z</time>
      </trkpt>
      <trkpt lat="48.19424" lon="5.93407">
        <ele>359.2</ele>
        <time>2024-02-19T14:45:07Z</time>
      </trkpt>
      <trkpt lat="48.19425" lon="5.93409">
        <ele>359.2</ele>
        <time>2024-02-19T14:45:09Z</time>
      </trkpt>
      <trkpt lat="48.19437" lon="5.934">
        <ele>359.3</ele>
        <time>2024-02-19T14:45:16Z</time>
      </trkpt>
      <trkpt lat="48.1944" lon="5.93396">
        <ele>359.3</ele>
        <time>2024-02-19T14:45:35Z</time>
      </trkpt>
      <trkpt lat="48.1944" lon="5.93397">
        <ele>359.3</ele>
        <time>2024-02-19T14:45:41Z</time>
      </trkpt>
      <trkpt lat="48.19427" lon="5.93418">
        <ele>359.3</ele>
        <time>2024-02-19T14:45:47Z</time>
      </trkpt>
      <trkpt lat="48.19425" lon="5.93425">
        <ele>359.3</ele>
        <time>2024-02-19T14:45:48Z</time>
      </trkpt>
      <trkpt lat="48.19425" lon="5.9344">
        <ele>359.3</ele>
        <time>2024-02-19T14:45:50Z</time>
      </trkpt>
      <trkpt lat="48.19428" lon="5.93454">
        <ele>359.3</ele>
        <time>2024-02-19T14:45:52Z</time>
      </trkpt>
      <trkpt lat="48.19433" lon="5.93467">
        <ele>359.3</ele>
        <time>2024-02-19T14:45:54Z</time>
      </trkpt>
      <trkpt lat="48.1944" lon="5.93478">
        <ele>359.3</ele>
        <time>2024-02-19T14:45:56Z</time>
      </trkpt>
      <trkpt lat="48.19448" lon="5.93488">
        <ele>359.3</ele>
        <time>2024-02-19T14:45:58Z</time>
      </trkpt>
      <trkpt lat="48.19456" lon="5.93495">
        <ele>359.3</ele>
        <time>2024-02-19T14:46:00Z</time>
      </trkpt>
      <trkpt lat="48.19466" lon="5.93498">
        <ele>359.2</ele>
        <time>2024-02-19T14:46:02Z</time>
      </trkpt>
      <trkpt lat="48.1948" lon="5.93495">
        <ele>359.2</ele>
        <time>2024-02-19T14:46:05Z</time>
      </trkpt>
      <trkpt lat="48.19489" lon="5.93488">
        <ele>359.2</ele>
        <time>2024-02-19T14:46:07Z</time>
      </trkpt>
      <trkpt lat="48.19505" lon="5.93471">
        <ele>359.1</ele>
        <time>2024-02-19T14:46:11Z</time>
      </trkpt>
      <trkpt lat="48.19521" lon="5.93454">
        <ele>359.2</ele>
        <time>2024-02-19T14:46:15Z</time>
      </trkpt>
      <trkpt lat="48.19536" lon="5.93438">
        <ele>359.1</ele>
        <time>2024-02-19T14:46:19Z</time>
      </trkpt>
      <trkpt lat="48.1955" lon="5.93421">
        <ele>359</ele>
        <time>2024-02-19T14:46:23Z</time>
      </trkpt>
      <trkpt lat="48.19553" lon="5.93416">
        <ele>359</ele>
        <time>2024-02-19T14:46:24Z</time>
      </trkpt>
      <trkpt lat="48.19561" lon="5.93397">
        <ele>359</ele>
        <time>2024-02-19T14:46:27Z</time>
      </trkpt>
      <trkpt lat="48.19563" lon="5.93376">
        <ele>358.9</ele>
        <time>2024-02-19T14:46:30Z</time>
      </trkpt>
      <trkpt lat="48.19559" lon="5.93363">
        <ele>358.9</ele>
        <time>2024-02-19T14:46:32Z</time>
      </trkpt>
      <trkpt lat="48.19551" lon="5.93344">
        <ele>358.9</ele>
        <time>2024-02-19T14:46:35Z</time>
      </trkpt>
      <trkpt lat="48.19544" lon="5.93334">
        <ele>358.9</ele>
        <time>2024-02-19T14:46:37Z</time>
      </trkpt>
      <trkpt lat="48.19535" lon="5.93325">
        <ele>358.9</ele>
        <time>2024-02-19T14:46:39Z</time>
      </trkpt>
      <trkpt lat="48.19526" lon="5.93319">
        <ele>358.9</ele>
        <time>2024-02-19T14:46:41Z</time>
      </trkpt>
      <trkpt lat="48.19516" lon="5.93316">
        <ele>358.9</ele>
        <time>2024-02-19T14:46:43Z</time>
      </trkpt>
      <trkpt lat="48.19506" lon="5.93318">
        <ele>359</ele>
        <time>2024-02-19T14:46:45Z</time>
      </trkpt>
      <trkpt lat="48.19497" lon="5.93325">
        <ele>359</ele>
        <time>2024-02-19T14:46:47Z</time>
      </trkpt>
      <trkpt lat="48.1948" lon="5.93342">
        <ele>359</ele>
        <time>2024-02-19T14:46:51Z</time>
      </trkpt>
      <trkpt lat="48.19463" lon="5.93361">
        <ele>359.1</ele>
        <time>2024-02-19T14:46:55Z</time>
      </trkpt>
      <trkpt lat="48.19447" lon="5.9338">
        <ele>359.2</ele>
        <time>2024-02-19T14:46:59Z</time>
      </trkpt>
      <trkpt lat="48.19431" lon="5.93397">
        <ele>359.2</ele>
        <time>2024-02-19T14:47:03Z</time>
      </trkpt>
      <trkpt lat="48.19425" lon="5.93409">
        <ele>359.2</ele>
        <time>2024-02-19T14:47:07Z</time>
      </trkpt>
      <trkpt lat="48.19428" lon="5.93409">
        <ele>359.2</ele>
        <time>2024-02-19T14:47:09Z</time>
      </trkpt>
      <trkpt lat="48.19432" lon="5.93406">
        <ele>359.3</ele>
        <time>2024-02-19T14:47:14Z</time>
      </trkpt>
      <trkpt lat="48.19434" lon="5.93402">
        <ele>359.3</ele>
        <time>2024-02-19T14:47:18Z</time>
      </trkpt>
      <trkpt lat="48.19442" lon="5.93392">
        <ele>359.3</ele>
        <time>2024-02-19T14:47:28Z</time>
      </trkpt>
      <trkpt lat="48.1944" lon="5.93394">
        <ele>359.3</ele>
        <time>2024-02-19T14:47:36Z</time>
      </trkpt>
      <trkpt lat="48.19429" lon="5.93415">
        <ele>359.3</ele>
        <time>2024-02-19T14:47:41Z</time>
      </trkpt>
      <trkpt lat="48.19428" lon="5.93424">
        <ele>359.3</ele>
        <time>2024-02-19T14:47:42Z</time>
      </trkpt>
      <trkpt lat="48.19427" lon="5.9344">
        <ele>359.3</ele>
        <time>2024-02-19T14:47:44Z</time>
      </trkpt>
      <trkpt lat="48.19433" lon="5.93464">
        <ele>359.3</ele>
        <time>2024-02-19T14:47:47Z</time>
      </trkpt>
      <trkpt lat="48.1944" lon="5.93478">
        <ele>359.3</ele>
        <time>2024-02-19T14:47:49Z</time>
      </trkpt>
      <trkpt lat="48.19448" lon="5.93489">
        <ele>359.3</ele>
        <time>2024-02-19T14:47:51Z</time>
      </trkpt>
      <trkpt lat="48.19458" lon="5.93496">
        <ele>359.3</ele>
        <time>2024-02-19T14:47:53Z</time>
      </trkpt>
      <trkpt lat="48.19469" lon="5.93499">
        <ele>359.2</ele>
        <time>2024-02-19T14:47:55Z</time>
      </trkpt>
      <trkpt lat="48.1948" lon="5.93495">
        <ele>359.2</ele>
        <time>2024-02-19T14:47:57Z</time>
      </trkpt>
      <trkpt lat="48.1949" lon="5.93487">
        <ele>359.2</ele>
        <time>2024-02-19T14:47:59Z</time>
      </trkpt>
      <trkpt lat="48.19508" lon="5.93467">
        <ele>359.1</ele>
        <time>2024-02-19T14:48:03Z</time>
      </trkpt>
      <trkpt lat="48.19526" lon="5.93448">
        <ele>359.2</ele>
        <time>2024-02-19T14:48:07Z</time>
      </trkpt>
      <trkpt lat="48.19543" lon="5.93429">
        <ele>359.1</ele>
        <time>2024-02-19T14:48:11Z</time>
      </trkpt>
      <trkpt lat="48.19555" lon="5.93412">
        <ele>359</ele>
        <time>2024-02-19T14:48:14Z</time>
      </trkpt>
      <trkpt lat="48.1956" lon="5.93399">
        <ele>359</ele>
        <time>2024-02-19T14:48:16Z</time>
      </trkpt>
      <trkpt lat="48.19561" lon="5.93383">
        <ele>359</ele>
        <time>2024-02-19T14:48:18Z</time>
      </trkpt>
      <trkpt lat="48.19559" lon="5.93367">
        <ele>358.9</ele>
        <time>2024-02-19T14:48:20Z</time>
      </trkpt>
      <trkpt lat="48.19554" lon="5.93351">
        <ele>358.9</ele>
        <time>2024-02-19T14:48:22Z</time>
      </trkpt>
      <trkpt lat="48.19543" lon="5.93331">
        <ele>358.9</ele>
        <time>2024-02-19T14:48:25Z</time>
      </trkpt>
      <trkpt lat="48.19533" lon="5.93322">
        <ele>358.9</ele>
        <time>2024-02-19T14:48:27Z</time>
      </trkpt>
      <trkpt lat="48.19523" lon="5.93316">
        <ele>358.9</ele>
        <time>2024-02-19T14:48:29Z</time>
      </trkpt>
      <trkpt lat="48.19512" lon="5.93317">
        <ele>359</ele>
        <time>2024-02-19T14:48:31Z</time>
      </trkpt>
      <trkpt lat="48.19501" lon="5.93323">
        <ele>359</ele>
        <time>2024-02-19T14:48:33Z</time>
      </trkpt>
      <trkpt lat="48.19483" lon="5.93342">
        <ele>359.1</ele>
        <time>2024-02-19T14:48:37Z</time>
      </trkpt>
      <trkpt lat="48.19465" lon="5.93361">
        <ele>359.2</ele>
        <time>2024-02-19T14:48:41Z</time>
      </trkpt>
      <trkpt lat="48.19448" lon="5.9338">
        <ele>359.2</ele>
        <time>2024-02-19T14:48:45Z</time>
      </trkpt>
      <trkpt lat="48.19439" lon="5.9339">
        <ele>359.2</ele>
        <time>2024-02-19T14:48:47Z</time>
      </trkpt>
      <trkpt lat="48.19423" lon="5.93409">
        <ele>359.3</ele>
        <time>2024-02-19T14:48:52Z</time>
      </trkpt>
      <trkpt lat="48.19421" lon="5.9341">
        <ele>359.3</ele>
        <time>2024-02-19T14:48:53Z</time>
      </trkpt>
      <trkpt lat="48.1942" lon="5.93408">
        <ele>359.3</ele>
        <time>2024-02-19T14:48:55Z</time>
      </trkpt>
      <trkpt lat="48.19437" lon="5.93397">
        <ele>359.2</ele>
        <time>2024-02-19T14:49:05Z</time>
      </trkpt>
      <trkpt lat="48.19448" lon="5.93383">
        <ele>359.2</ele>
        <time>2024-02-19T14:49:16Z</time>
      </trkpt>
      <trkpt lat="48.19448" lon="5.93382">
        <ele>359.2</ele>
        <time>2024-02-19T14:49:18Z</time>
      </trkpt>
      <trkpt lat="48.19447" lon="5.93387">
        <ele>359.2</ele>
        <time>2024-02-19T14:49:23Z</time>
      </trkpt>
      <trkpt lat="48.19448" lon="5.93387">
        <ele>359.2</ele>
        <time>2024-02-19T14:49:27Z</time>
      </trkpt>
      <trkpt lat="48.1945" lon="5.93383">
        <ele>359.2</ele>
        <time>2024-02-19T14:49:31Z</time>
      </trkpt>
      <trkpt lat="48.1945" lon="5.93382">
        <ele>359.2</ele>
        <time>2024-02-19T14:49:32Z</time>
      </trkpt>
      <trkpt lat="48.19453" lon="5.93382">
        <ele>359.2</ele>
        <time>2024-02-19T14:49:36Z</time>
      </trkpt>
      <trkpt lat="48.19455" lon="5.93379">
        <ele>359.2</ele>
        <time>2024-02-19T14:49:40Z</time>
      </trkpt>
      <trkpt lat="48.19457" lon="5.93378">
        <ele>359.2</ele>
        <time>2024-02-19T14:49:45Z</time>
      </trkpt>
      <trkpt lat="48.19457" lon="5.93377">
        <ele>359.2</ele>
        <time>2024-02-19T14:49:46Z</time>
      </trkpt>
      <trkpt lat="48.19462" lon="5.93372">
        <ele>359.2</ele>
        <time>2024-02-19T14:49:52Z</time>
      </trkpt>
      <trkpt lat="48.19478" lon="5.93357">
        <ele>359.1</ele>
        <time>2024-02-19T14:50:03Z</time>
      </trkpt>
      <trkpt lat="48.19495" lon="5.93341">
        <ele>359</ele>
        <time>2024-02-19T14:50:13Z</time>
      </trkpt>
      <trkpt lat="48.19502" lon="5.93325">
        <ele>359</ele>
        <time>2024-02-19T14:50:21Z</time>
      </trkpt>
      <trkpt lat="48.19499" lon="5.93323">
        <ele>359</ele>
        <time>2024-02-19T14:50:24Z</time>
      </trkpt>
      <trkpt lat="48.19484" lon="5.93342">
        <ele>359</ele>
        <time>2024-02-19T14:50:33Z</time>
      </trkpt>
      <trkpt lat="48.19468" lon="5.93359">
        <ele>359.1</ele>
        <time>2024-02-19T14:50:42Z</time>
      </trkpt>
      <trkpt lat="48.19452" lon="5.93377">
        <ele>359.2</ele>
        <time>2024-02-19T14:50:52Z</time>
      </trkpt>
      <trkpt lat="48.19437" lon="5.93391">
        <ele>359.2</ele>
        <time>2024-02-19T14:51:02Z</time>
      </trkpt>
      <trkpt lat="48.19432" lon="5.93399">
        <ele>359.2</ele>
        <time>2024-02-19T14:51:06Z</time>
      </trkpt>
      <trkpt lat="48.19435" lon="5.934">
        <ele>359.2</ele>
        <time>2024-02-19T14:51:09Z</time>
      </trkpt>
      <trkpt lat="48.19445" lon="5.93391">
        <ele>359.3</ele>
        <time>2024-02-19T14:51:19Z</time>
      </trkpt>
      <trkpt lat="48.19443" lon="5.93393">
        <ele>359.3</ele>
        <time>2024-02-19T14:51:21Z</time>
      </trkpt>
      <trkpt lat="48.19443" lon="5.93394">
        <ele>359.3</ele>
        <time>2024-02-19T14:51:23Z</time>
      </trkpt>
      <trkpt lat="48.1944" lon="5.93395">
        <ele>359.3</ele>
        <time>2024-02-19T14:52:02Z</time>
      </trkpt>
      <trkpt lat="48.19429" lon="5.93417">
        <ele>359.3</ele>
        <time>2024-02-19T14:52:08Z</time>
      </trkpt>
      <trkpt lat="48.19427" lon="5.93431">
        <ele>359.3</ele>
        <time>2024-02-19T14:52:09Z</time>
      </trkpt>
      <trkpt lat="48.19427" lon="5.93438">
        <ele>359.3</ele>
        <time>2024-02-19T14:52:11Z</time>
      </trkpt>
      <trkpt lat="48.1943" lon="5.93453">
        <ele>359.3</ele>
        <time>2024-02-19T14:52:13Z</time>
      </trkpt>
      <trkpt lat="48.19438" lon="5.93473">
        <ele>359.3</ele>
        <time>2024-02-19T14:52:16Z</time>
      </trkpt>
      <trkpt lat="48.19449" lon="5.93488">
        <ele>359.3</ele>
        <time>2024-02-19T14:52:19Z</time>
      </trkpt>
      <trkpt lat="48.19458" lon="5.93495">
        <ele>359.3</ele>
        <time>2024-02-19T14:52:21Z</time>
      </trkpt>
      <trkpt lat="48.19468" lon="5.93499">
        <ele>359.2</ele>
        <time>2024-02-19T14:52:23Z</time>
      </trkpt>
      <trkpt lat="48.19477" lon="5.93498">
        <ele>359.2</ele>
        <time>2024-02-19T14:52:25Z</time>
      </trkpt>
      <trkpt lat="48.19486" lon="5.93493">
        <ele>359.2</ele>
        <time>2024-02-19T14:52:27Z</time>
      </trkpt>
      <trkpt lat="48.19502" lon="5.93476">
        <ele>359.1</ele>
        <time>2024-02-19T14:52:31Z</time>
      </trkpt>
      <trkpt lat="48.19518" lon="5.93457">
        <ele>359.2</ele>
        <time>2024-02-19T14:52:35Z</time>
      </trkpt>
      <trkpt lat="48.19535" lon="5.93439">
        <ele>359.1</ele>
        <time>2024-02-19T14:52:39Z</time>
      </trkpt>
      <trkpt lat="48.1955" lon="5.93421">
        <ele>359</ele>
        <time>2024-02-19T14:52:43Z</time>
      </trkpt>
      <trkpt lat="48.19557" lon="5.93411">
        <ele>359</ele>
        <time>2024-02-19T14:52:45Z</time>
      </trkpt>
      <trkpt lat="48.19561" lon="5.93398">
        <ele>359</ele>
        <time>2024-02-19T14:52:47Z</time>
      </trkpt>
      <trkpt lat="48.19563" lon="5.93376">
        <ele>358.9</ele>
        <time>2024-02-19T14:52:50Z</time>
      </trkpt>
      <trkpt lat="48.19561" lon="5.93361">
        <ele>358.9</ele>
        <time>2024-02-19T14:52:52Z</time>
      </trkpt>
      <trkpt lat="48.19556" lon="5.93348">
        <ele>358.9</ele>
        <time>2024-02-19T14:52:54Z</time>
      </trkpt>
      <trkpt lat="48.1955" lon="5.93337">
        <ele>358.9</ele>
        <time>2024-02-19T14:52:56Z</time>
      </trkpt>
      <trkpt lat="48.19542" lon="5.93327">
        <ele>358.9</ele>
        <time>2024-02-19T14:52:58Z</time>
      </trkpt>
      <trkpt lat="48.19533" lon="5.9332">
        <ele>358.9</ele>
        <time>2024-02-19T14:53:00Z</time>
      </trkpt>
      <trkpt lat="48.19523" lon="5.93316">
        <ele>358.9</ele>
        <time>2024-02-19T14:53:02Z</time>
      </trkpt>
      <trkpt lat="48.19513" lon="5.93316">
        <ele>358.9</ele>
        <time>2024-02-19T14:53:04Z</time>
      </trkpt>
      <trkpt lat="48.19503" lon="5.9332">
        <ele>359</ele>
        <time>2024-02-19T14:53:06Z</time>
      </trkpt>
      <trkpt lat="48.19485" lon="5.93337">
        <ele>359</ele>
        <time>2024-02-19T14:53:10Z</time>
      </trkpt>
      <trkpt lat="48.19468" lon="5.93357">
        <ele>359.1</ele>
        <time>2024-02-19T14:53:14Z</time>
      </trkpt>
      <trkpt lat="48.19452" lon="5.93375">
        <ele>359.2</ele>
        <time>2024-02-19T14:53:18Z</time>
      </trkpt>
      <trkpt lat="48.19436" lon="5.93393">
        <ele>359.2</ele>
        <time>2024-02-19T14:53:22Z</time>
      </trkpt>
      <trkpt lat="48.19431" lon="5.93401">
        <ele>359.2</ele>
        <time>2024-02-19T14:53:24Z</time>
      </trkpt>
      <trkpt lat="48.1943" lon="5.93404">
        <ele>359.2</ele>
        <time>2024-02-19T14:53:25Z</time>
      </trkpt>
      <trkpt lat="48.19429" lon="5.93407">
        <ele>359.2</ele>
        <time>2024-02-19T14:53:26Z</time>
      </trkpt>
      <trkpt lat="48.19427" lon="5.93408">
        <ele>359.2</ele>
        <time>2024-02-19T14:53:28Z</time>
      </trkpt>
      <trkpt lat="48.19428" lon="5.93405">
        <ele>359.2</ele>
        <time>2024-02-19T14:53:30Z</time>
      </trkpt>
      <trkpt lat="48.19442" lon="5.93392">
        <ele>359.3</ele>
        <time>2024-02-19T14:53:42Z</time>
      </trkpt>
      <trkpt lat="48.19442" lon="5.93394">
        <ele>359.3</ele>
        <time>2024-02-19T14:53:44Z</time>
      </trkpt>
      <trkpt lat="48.1944" lon="5.93396">
        <ele>359.3</ele>
        <time>2024-02-19T14:53:47Z</time>
      </trkpt>
      <trkpt lat="48.1944" lon="5.93396">
        <ele>359.3</ele>
        <time>2024-02-19T14:53:57Z</time>
      </trkpt>
      <trkpt lat="48.19427" lon="5.93424">
        <ele>359.3</ele>
        <time>2024-02-19T14:54:03Z</time>
      </trkpt>
      <trkpt lat="48.19427" lon="5.9344">
        <ele>359.3</ele>
        <time>2024-02-19T14:54:05Z</time>
      </trkpt>
      <trkpt lat="48.19431" lon="5.93465">
        <ele>359.3</ele>
        <time>2024-02-19T14:54:08Z</time>
      </trkpt>
      <trkpt lat="48.19438" lon="5.93479">
        <ele>359.3</ele>
        <time>2024-02-19T14:54:10Z</time>
      </trkpt>
      <trkpt lat="48.19447" lon="5.93489">
        <ele>359.3</ele>
        <time>2024-02-19T14:54:12Z</time>
      </trkpt>
      <trkpt lat="48.19458" lon="5.93496">
        <ele>359.3</ele>
        <time>2024-02-19T14:54:14Z</time>
      </trkpt>
      <trkpt lat="48.19469" lon="5.93499">
        <ele>359.2</ele>
        <time>2024-02-19T14:54:16Z</time>
      </trkpt>
      <trkpt lat="48.1948" lon="5.93495">
        <ele>359.2</ele>
        <time>2024-02-19T14:54:18Z</time>
      </trkpt>
      <trkpt lat="48.195" lon="5.93475">
        <ele>359.1</ele>
        <time>2024-02-19T14:54:22Z</time>
      </trkpt>
      <trkpt lat="48.19519" lon="5.93455">
        <ele>359.2</ele>
        <time>2024-02-19T14:54:26Z</time>
      </trkpt>
      <trkpt lat="48.19538" lon="5.93434">
        <ele>359.1</ele>
        <time>2024-02-19T14:54:30Z</time>
      </trkpt>
      <trkpt lat="48.19555" lon="5.93413">
        <ele>359</ele>
        <time>2024-02-19T14:54:34Z</time>
      </trkpt>
      <trkpt lat="48.19561" lon="5.93399">
        <ele>359</ele>
        <time>2024-02-19T14:54:36Z</time>
      </trkpt>
      <trkpt lat="48.19564" lon="5.93383">
        <ele>359</ele>
        <time>2024-02-19T14:54:38Z</time>
      </trkpt>
      <trkpt lat="48.19562" lon="5.93365">
        <ele>358.9</ele>
        <time>2024-02-19T14:54:40Z</time>
      </trkpt>
      <trkpt lat="48.19557" lon="5.93349">
        <ele>358.9</ele>
        <time>2024-02-19T14:54:42Z</time>
      </trkpt>
      <trkpt lat="48.19549" lon="5.93335">
        <ele>358.9</ele>
        <time>2024-02-19T14:54:44Z</time>
      </trkpt>
      <trkpt lat="48.19534" lon="5.93321">
        <ele>358.9</ele>
        <time>2024-02-19T14:54:47Z</time>
      </trkpt>
      <trkpt lat="48.19523" lon="5.93316">
        <ele>358.9</ele>
        <time>2024-02-19T14:54:49Z</time>
      </trkpt>
      <trkpt lat="48.19512" lon="5.93317">
        <ele>359</ele>
        <time>2024-02-19T14:54:51Z</time>
      </trkpt>
      <trkpt lat="48.19501" lon="5.93323">
        <ele>359</ele>
        <time>2024-02-19T14:54:53Z</time>
      </trkpt>
      <trkpt lat="48.19486" lon="5.9334">
        <ele>359</ele>
        <time>2024-02-19T14:54:56Z</time>
      </trkpt>
      <trkpt lat="48.19467" lon="5.9336">
        <ele>359.1</ele>
        <time>2024-02-19T14:55:00Z</time>
      </trkpt>
      <trkpt lat="48.1945" lon="5.93379">
        <ele>359.2</ele>
        <time>2024-02-19T14:55:04Z</time>
      </trkpt>
      <trkpt lat="48.19441" lon="5.93389">
        <ele>359.2</ele>
        <time>2024-02-19T14:55:06Z</time>
      </trkpt>
      <trkpt lat="48.19426" lon="5.93405">
        <ele>359.2</ele>
        <time>2024-02-19T14:55:10Z</time>
      </trkpt>
      <trkpt lat="48.1942" lon="5.93408">
        <ele>359.2</ele>
        <time>2024-02-19T14:55:13Z</time>
      </trkpt>
      <trkpt lat="48.19432" lon="5.93401">
        <ele>359.3</ele>
        <time>2024-02-19T14:55:20Z</time>
      </trkpt>
      <trkpt lat="48.19432" lon="5.93406">
        <ele>359.3</ele>
        <time>2024-02-19T14:55:23Z</time>
      </trkpt>
      <trkpt lat="48.1943" lon="5.93406">
        <ele>359.3</ele>
        <time>2024-02-19T14:55:27Z</time>
      </trkpt>
      <trkpt lat="48.19432" lon="5.93404">
        <ele>359.3</ele>
        <time>2024-02-19T14:55:29Z</time>
      </trkpt>
      <trkpt lat="48.19441" lon="5.93396">
        <ele>359.3</ele>
        <time>2024-02-19T14:55:41Z</time>
      </trkpt>
      <trkpt lat="48.19441" lon="5.93396">
        <ele>359.3</ele>
        <time>2024-02-19T14:55:47Z</time>
      </trkpt>
      <trkpt lat="48.19434" lon="5.93405">
        <ele>359.3</ele>
        <time>2024-02-19T14:55:51Z</time>
      </trkpt>
      <trkpt lat="48.19426" lon="5.93431">
        <ele>359.3</ele>
        <time>2024-02-19T14:55:55Z</time>
      </trkpt>
      <trkpt lat="48.19426" lon="5.93445">
        <ele>359.3</ele>
        <time>2024-02-19T14:55:57Z</time>
      </trkpt>
      <trkpt lat="48.19429" lon="5.93459">
        <ele>359.3</ele>
        <time>2024-02-19T14:55:59Z</time>
      </trkpt>
      <trkpt lat="48.19441" lon="5.93484">
        <ele>359.3</ele>
        <time>2024-02-19T14:56:03Z</time>
      </trkpt>
      <trkpt lat="48.19449" lon="5.93493">
        <ele>359.3</ele>
        <time>2024-02-19T14:56:05Z</time>
      </trkpt>
      <trkpt lat="48.19458" lon="5.93499">
        <ele>359.3</ele>
        <time>2024-02-19T14:56:07Z</time>
      </trkpt>
      <trkpt lat="48.19468" lon="5.935">
        <ele>359.2</ele>
        <time>2024-02-19T14:56:09Z</time>
      </trkpt>
      <trkpt lat="48.19483" lon="5.93494">
        <ele>359.2</ele>
        <time>2024-02-19T14:56:12Z</time>
      </trkpt>
      <trkpt lat="48.19501" lon="5.93477">
        <ele>359.1</ele>
        <time>2024-02-19T14:56:16Z</time>
      </trkpt>
      <trkpt lat="48.19518" lon="5.93459">
        <ele>359.2</ele>
        <time>2024-02-19T14:56:20Z</time>
      </trkpt>
      <trkpt lat="48.19534" lon="5.93441">
        <ele>359.1</ele>
        <time>2024-02-19T14:56:24Z</time>
      </trkpt>
      <trkpt lat="48.1955" lon="5.93422">
        <ele>359</ele>
        <time>2024-02-19T14:56:28Z</time>
      </trkpt>
      <trkpt lat="48.19558" lon="5.93412">
        <ele>359</ele>
        <time>2024-02-19T14:56:30Z</time>
      </trkpt>
      <trkpt lat="48.19564" lon="5.93391">
        <ele>359</ele>
        <time>2024-02-19T14:56:33Z</time>
      </trkpt>
      <trkpt lat="48.19565" lon="5.93376">
        <ele>358.9</ele>
        <time>2024-02-19T14:56:35Z</time>
      </trkpt>
      <trkpt lat="48.19561" lon="5.93354">
        <ele>358.9</ele>
        <time>2024-02-19T14:56:38Z</time>
      </trkpt>
      <trkpt lat="48.19555" lon="5.93341">
        <ele>358.9</ele>
        <time>2024-02-19T14:56:40Z</time>
      </trkpt>
      <trkpt lat="48.19547" lon="5.9333">
        <ele>358.9</ele>
        <time>2024-02-19T14:56:42Z</time>
      </trkpt>
      <trkpt lat="48.19539" lon="5.93321">
        <ele>358.9</ele>
        <time>2024-02-19T14:56:44Z</time>
      </trkpt>
      <trkpt lat="48.19529" lon="5.93315">
        <ele>358.9</ele>
        <time>2024-02-19T14:56:46Z</time>
      </trkpt>
      <trkpt lat="48.19513" lon="5.93313">
        <ele>359</ele>
        <time>2024-02-19T14:56:49Z</time>
      </trkpt>
      <trkpt lat="48.19499" lon="5.93322">
        <ele>359</ele>
        <time>2024-02-19T14:56:52Z</time>
      </trkpt>
      <trkpt lat="48.19481" lon="5.93343">
        <ele>359</ele>
        <time>2024-02-19T14:56:56Z</time>
      </trkpt>
      <trkpt lat="48.19465" lon="5.93362">
        <ele>359.1</ele>
        <time>2024-02-19T14:57:00Z</time>
      </trkpt>
      <trkpt lat="48.19448" lon="5.9338">
        <ele>359.2</ele>
        <time>2024-02-19T14:57:04Z</time>
      </trkpt>
      <trkpt lat="48.19433" lon="5.93397">
        <ele>359.2</ele>
        <time>2024-02-19T14:57:08Z</time>
      </trkpt>
      <trkpt lat="48.19421" lon="5.93408">
        <ele>359.2</ele>
        <time>2024-02-19T14:57:13Z</time>
      </trkpt>
      <trkpt lat="48.19426" lon="5.93402">
        <ele>359.3</ele>
        <time>2024-02-19T14:57:17Z</time>
      </trkpt>
      <trkpt lat="48.19442" lon="5.93392">
        <ele>359.3</ele>
        <time>2024-02-19T14:57:30Z</time>
      </trkpt>
      <trkpt lat="48.19442" lon="5.93394">
        <ele>359.3</ele>
        <time>2024-02-19T14:57:32Z</time>
      </trkpt>
      <trkpt lat="48.1944" lon="5.93396">
        <ele>359.3</ele>
        <time>2024-02-19T14:57:42Z</time>
      </trkpt>
      <trkpt lat="48.19432" lon="5.93408">
        <ele>359.3</ele>
        <time>2024-02-19T14:57:46Z</time>
      </trkpt>
      <trkpt lat="48.19426" lon="5.93433">
        <ele>359.3</ele>
        <time>2024-02-19T14:57:49Z</time>
      </trkpt>
      <trkpt lat="48.19427" lon="5.9345">
        <ele>359.3</ele>
        <time>2024-02-19T14:57:51Z</time>
      </trkpt>
      <trkpt lat="48.19432" lon="5.93466">
        <ele>359.3</ele>
        <time>2024-02-19T14:57:53Z</time>
      </trkpt>
      <trkpt lat="48.19439" lon="5.9348">
        <ele>359.3</ele>
        <time>2024-02-19T14:57:55Z</time>
      </trkpt>
      <trkpt lat="48.19449" lon="5.9349">
        <ele>359.3</ele>
        <time>2024-02-19T14:57:57Z</time>
      </trkpt>
      <trkpt lat="48.19465" lon="5.93498">
        <ele>359.2</ele>
        <time>2024-02-19T14:58:00Z</time>
      </trkpt>
      <trkpt lat="48.19478" lon="5.93497">
        <ele>359.2</ele>
        <time>2024-02-19T14:58:02Z</time>
      </trkpt>
      <trkpt lat="48.19488" lon="5.93489">
        <ele>359.2</ele>
        <time>2024-02-19T14:58:04Z</time>
      </trkpt>
      <trkpt lat="48.19504" lon="5.93473">
        <ele>359.1</ele>
        <time>2024-02-19T14:58:07Z</time>
      </trkpt>
      <trkpt lat="48.19522" lon="5.93451">
        <ele>359.2</ele>
        <time>2024-02-19T14:58:11Z</time>
      </trkpt>
      <trkpt lat="48.1954" lon="5.9343">
        <ele>359.1</ele>
        <time>2024-02-19T14:58:15Z</time>
      </trkpt>
      <trkpt lat="48.19553" lon="5.93414">
        <ele>359</ele>
        <time>2024-02-19T14:58:18Z</time>
      </trkpt>
      <trkpt lat="48.1956" lon="5.934">
        <ele>359</ele>
        <time>2024-02-19T14:58:20Z</time>
      </trkpt>
      <trkpt lat="48.19563" lon="5.93384">
        <ele>359</ele>
        <time>2024-02-19T14:58:22Z</time>
      </trkpt>
      <trkpt lat="48.19562" lon="5.93367">
        <ele>358.9</ele>
        <time>2024-02-19T14:58:24Z</time>
      </trkpt>
      <trkpt lat="48.19557" lon="5.9335">
        <ele>358.9</ele>
        <time>2024-02-19T14:58:26Z</time>
      </trkpt>
      <trkpt lat="48.1955" lon="5.93336">
        <ele>358.9</ele>
        <time>2024-02-19T14:58:28Z</time>
      </trkpt>
      <trkpt lat="48.19541" lon="5.93324">
        <ele>358.9</ele>
        <time>2024-02-19T14:58:30Z</time>
      </trkpt>
      <trkpt lat="48.1953" lon="5.93316">
        <ele>358.9</ele>
        <time>2024-02-19T14:58:32Z</time>
      </trkpt>
      <trkpt lat="48.19514" lon="5.93315">
        <ele>358.9</ele>
        <time>2024-02-19T14:58:35Z</time>
      </trkpt>
      <trkpt lat="48.19503" lon="5.93321">
        <ele>359</ele>
        <time>2024-02-19T14:58:37Z</time>
      </trkpt>
      <trkpt lat="48.19484" lon="5.93342">
        <ele>359</ele>
        <time>2024-02-19T14:58:41Z</time>
      </trkpt>
      <trkpt lat="48.1947" lon="5.9336">
        <ele>359.1</ele>
        <time>2024-02-19T14:58:44Z</time>
      </trkpt>
      <trkpt lat="48.19455" lon="5.93378">
        <ele>359.2</ele>
        <time>2024-02-19T14:58:47Z</time>
      </trkpt>
      <trkpt lat="48.19439" lon="5.93395">
        <ele>359.2</ele>
        <time>2024-02-19T14:58:50Z</time>
      </trkpt>
      <trkpt lat="48.19423" lon="5.93412">
        <ele>359.3</ele>
        <time>2024-02-19T14:58:54Z</time>
      </trkpt>
      <trkpt lat="48.19421" lon="5.93414">
        <ele>359.3</ele>
        <time>2024-02-19T14:58:55Z</time>
      </trkpt>
      <trkpt lat="48.19417" lon="5.93415">
        <ele>359.3</ele>
        <time>2024-02-19T14:58:57Z</time>
      </trkpt>
      <trkpt lat="48.19423" lon="5.93406">
        <ele>359.3</ele>
        <time>2024-02-19T14:59:02Z</time>
      </trkpt>
      <trkpt lat="48.1944" lon="5.93393">
        <ele>359.2</ele>
        <time>2024-02-19T14:59:12Z</time>
      </trkpt>
      <trkpt lat="48.1944" lon="5.93393">
        <ele>359.2</ele>
        <time>2024-02-19T14:59:14Z</time>
      </trkpt>
      <trkpt lat="48.19438" lon="5.93396">
        <ele>359.2</ele>
        <time>2024-02-19T14:59:17Z</time>
      </trkpt>
      <trkpt lat="48.19429" lon="5.93398">
        <ele>359.2</ele>
        <time>2024-02-19T14:59:28Z</time>
      </trkpt>
      <trkpt lat="48.19432" lon="5.93397">
        <ele>359.2</ele>
        <time>2024-02-19T14:59:31Z</time>
      </trkpt>
      <trkpt lat="48.19433" lon="5.93395">
        <ele>359.2</ele>
        <time>2024-02-19T14:59:33Z</time>
      </trkpt>
      <trkpt lat="48.19435" lon="5.93393">
        <ele>359.2</ele>
        <time>2024-02-19T14:59:35Z</time>
      </trkpt>
      <trkpt lat="48.19445" lon="5.93392">
        <ele>359.2</ele>
        <time>2024-02-19T14:59:49Z</time>
      </trkpt>
      <trkpt lat="48.19441" lon="5.93397">
        <ele>359.2</ele>
        <time>2024-02-19T14:59:54Z</time>
      </trkpt>
      <trkpt lat="48.19441" lon="5.93397">
        <ele>359.2</ele>
        <time>2024-02-19T14:59:57Z</time>
      </trkpt>
      <trkpt lat="48.19446" lon="5.93385">
        <ele>359.2</ele>
        <time>2024-02-19T15:00:11Z</time>
      </trkpt>
      <trkpt lat="48.19449" lon="5.93382">
        <ele>359.2</ele>
        <time>2024-02-19T15:00:14Z</time>
      </trkpt>
      <trkpt lat="48.19453" lon="5.93378">
        <ele>359.2</ele>
        <time>2024-02-19T15:00:19Z</time>
      </trkpt>
      <trkpt lat="48.1946" lon="5.93368">
        <ele>359.1</ele>
        <time>2024-02-19T15:03:13Z</time>
      </trkpt>
      <trkpt lat="48.19477" lon="5.93353">
        <ele>359</ele>
        <time>2024-02-19T15:03:20Z</time>
      </trkpt>
      <trkpt lat="48.19494" lon="5.93335">
        <ele>359</ele>
        <time>2024-02-19T15:03:27Z</time>
      </trkpt>
      <trkpt lat="48.1951" lon="5.93321">
        <ele>359</ele>
        <time>2024-02-19T15:03:33Z</time>
      </trkpt>
      <trkpt lat="48.19518" lon="5.93314">
        <ele>359</ele>
        <time>2024-02-19T15:03:39Z</time>
      </trkpt>
      <trkpt lat="48.19499" lon="5.93328">
        <ele>359</ele>
        <time>2024-02-19T15:03:50Z</time>
      </trkpt>
      <trkpt lat="48.19483" lon="5.93344">
        <ele>359</ele>
        <time>2024-02-19T15:03:55Z</time>
      </trkpt>
      <trkpt lat="48.19468" lon="5.9336">
        <ele>359.1</ele>
        <time>2024-02-19T15:03:59Z</time>
      </trkpt>
      <trkpt lat="48.19453" lon="5.93376">
        <ele>359.2</ele>
        <time>2024-02-19T15:04:03Z</time>
      </trkpt>
      <trkpt lat="48.19435" lon="5.93395">
        <ele>359.2</ele>
        <time>2024-02-19T15:04:08Z</time>
      </trkpt>
      <trkpt lat="48.19433" lon="5.93398">
        <ele>359.2</ele>
        <time>2024-02-19T15:04:09Z</time>
      </trkpt>
      <trkpt lat="48.19432" lon="5.93403">
        <ele>359.2</ele>
        <time>2024-02-19T15:04:11Z</time>
      </trkpt>
      <trkpt lat="48.19433" lon="5.93403">
        <ele>359.2</ele>
        <time>2024-02-19T15:04:12Z</time>
      </trkpt>
      <trkpt lat="48.19447" lon="5.93377">
        <ele>359.2</ele>
        <time>2024-02-19T15:08:31Z</time>
      </trkpt>
      <trkpt lat="48.19446" lon="5.93377">
        <ele>359.2</ele>
        <time>2024-02-19T15:08:32Z</time>
      </trkpt>
      <trkpt lat="48.19428" lon="5.93391">
        <ele>359.3</ele>
        <time>2024-02-19T15:08:45Z</time>
      </trkpt>
      <trkpt lat="48.19413" lon="5.93407">
        <ele>361.5</ele>
        <time>2024-02-19T15:08:54Z</time>
      </trkpt>
      <trkpt lat="48.19405" lon="5.9341">
        <ele>362.8</ele>
        <time>2024-02-19T15:09:03Z</time>
      </trkpt>
      <trkpt lat="48.19396" lon="5.93408">
        <ele>364.1</ele>
        <time>2024-02-19T15:09:11Z</time>
      </trkpt>
      <trkpt lat="48.1938" lon="5.93422">
        <ele>367</ele>
        <time>2024-02-19T15:09:20Z</time>
      </trkpt>
      <trkpt lat="48.19365" lon="5.93438">
        <ele>369.5</ele>
        <time>2024-02-19T15:09:28Z</time>
      </trkpt>
      <trkpt lat="48.19348" lon="5.93451">
        <ele>371.2</ele>
        <time>2024-02-19T15:09:37Z</time>
      </trkpt>
      <trkpt lat="48.19331" lon="5.93466">
        <ele>373.2</ele>
        <time>2024-02-19T15:09:46Z</time>
      </trkpt>
      <trkpt lat="48.19315" lon="5.93484">
        <ele>375.2</ele>
        <time>2024-02-19T15:09:55Z</time>
      </trkpt>
      <trkpt lat="48.19299" lon="5.935">
        <ele>376.7</ele>
        <time>2024-02-19T15:10:04Z</time>
      </trkpt>
      <trkpt lat="48.19287" lon="5.9352">
        <ele>378.1</ele>
        <time>2024-02-19T15:10:12Z</time>
      </trkpt>
      <trkpt lat="48.19296" lon="5.93544">
        <ele>377.3</ele>
        <time>2024-02-19T15:10:19Z</time>
      </trkpt>
      <trkpt lat="48.19306" lon="5.93567">
        <ele>376.7</ele>
        <time>2024-02-19T15:10:26Z</time>
      </trkpt>
      <trkpt lat="48.19319" lon="5.9359">
        <ele>376.4</ele>
        <time>2024-02-19T15:10:34Z</time>
      </trkpt>
      <trkpt lat="48.1933" lon="5.93612">
        <ele>376</ele>
        <time>2024-02-19T15:10:42Z</time>
      </trkpt>
      <trkpt lat="48.19341" lon="5.93633">
        <ele>375.4</ele>
        <time>2024-02-19T15:10:49Z</time>
      </trkpt>
      <trkpt lat="48.19352" lon="5.93658">
        <ele>374.6</ele>
        <time>2024-02-19T15:10:57Z</time>
      </trkpt>
      <trkpt lat="48.19364" lon="5.9368">
        <ele>373.8</ele>
        <time>2024-02-19T15:11:05Z</time>
      </trkpt>
      <trkpt lat="48.19375" lon="5.93704">
        <ele>373.1</ele>
        <time>2024-02-19T15:11:13Z</time>
      </trkpt>
      <trkpt lat="48.19385" lon="5.93729">
        <ele>372.3</ele>
        <time>2024-02-19T15:11:21Z</time>
      </trkpt>
      <trkpt lat="48.19399" lon="5.93751">
        <ele>371.6</ele>
        <time>2024-02-19T15:11:29Z</time>
      </trkpt>
      <trkpt lat="48.1941" lon="5.93773">
        <ele>370.8</ele>
        <time>2024-02-19T15:11:36Z</time>
      </trkpt>
      <trkpt lat="48.19424" lon="5.93794">
        <ele>370</ele>
        <time>2024-02-19T15:11:44Z</time>
      </trkpt>
      <trkpt lat="48.19437" lon="5.93815">
        <ele>369.1</ele>
        <time>2024-02-19T15:11:52Z</time>
      </trkpt>
      <trkpt lat="48.1945" lon="5.93837">
        <ele>368.3</ele>
        <time>2024-02-19T15:12:00Z</time>
      </trkpt>
      <trkpt lat="48.19463" lon="5.93858">
        <ele>367.6</ele>
        <time>2024-02-19T15:12:08Z</time>
      </trkpt>
      <trkpt lat="48.19477" lon="5.93879">
        <ele>367</ele>
        <time>2024-02-19T15:12:16Z</time>
      </trkpt>
      <trkpt lat="48.1949" lon="5.93901">
        <ele>366.5</ele>
        <time>2024-02-19T15:12:24Z</time>
      </trkpt>
      <trkpt lat="48.19501" lon="5.93927">
        <ele>365.8</ele>
        <time>2024-02-19T15:12:32Z</time>
      </trkpt>
      <trkpt lat="48.19514" lon="5.93948">
        <ele>365.2</ele>
        <time>2024-02-19T15:12:40Z</time>
      </trkpt>
      <trkpt lat="48.19525" lon="5.93972">
        <ele>364.7</ele>
        <time>2024-02-19T15:12:48Z</time>
      </trkpt>
      <trkpt lat="48.19534" lon="5.93998">
        <ele>364.2</ele>
        <time>2024-02-19T15:12:56Z</time>
      </trkpt>
      <trkpt lat="48.19547" lon="5.94021">
        <ele>363.9</ele>
        <time>2024-02-19T15:13:04Z</time>
      </trkpt>
      <trkpt lat="48.19559" lon="5.94045">
        <ele>363.4</ele>
        <time>2024-02-19T15:13:12Z</time>
      </trkpt>
      <trkpt lat="48.19571" lon="5.9407">
        <ele>362.5</ele>
        <time>2024-02-19T15:13:20Z</time>
      </trkpt>
      <trkpt lat="48.19583" lon="5.94094">
        <ele>361.9</ele>
        <time>2024-02-19T15:13:28Z</time>
      </trkpt>
      <trkpt lat="48.19595" lon="5.94115">
        <ele>361.6</ele>
        <time>2024-02-19T15:13:35Z</time>
      </trkpt>
      <trkpt lat="48.19603" lon="5.94142">
        <ele>361.2</ele>
        <time>2024-02-19T15:13:43Z</time>
      </trkpt>
      <trkpt lat="48.19607" lon="5.94169">
        <ele>360.5</ele>
        <time>2024-02-19T15:13:51Z</time>
      </trkpt>
      <trkpt lat="48.19613" lon="5.94195">
        <ele>359.9</ele>
        <time>2024-02-19T15:13:59Z</time>
      </trkpt>
      <trkpt lat="48.1962" lon="5.94222">
        <ele>359.5</ele>
        <time>2024-02-19T15:14:08Z</time>
      </trkpt>
      <trkpt lat="48.19626" lon="5.94249">
        <ele>359.1</ele>
        <time>2024-02-19T15:14:16Z</time>
      </trkpt>
      <trkpt lat="48.1963" lon="5.94277">
        <ele>358.8</ele>
        <time>2024-02-19T15:14:24Z</time>
      </trkpt>
      <trkpt lat="48.19635" lon="5.94305">
        <ele>358.6</ele>
        <time>2024-02-19T15:14:32Z</time>
      </trkpt>
      <trkpt lat="48.1964" lon="5.94332">
        <ele>358.6</ele>
        <time>2024-02-19T15:14:41Z</time>
      </trkpt>
      <trkpt lat="48.19644" lon="5.94358">
        <ele>358.5</ele>
        <time>2024-02-19T15:14:49Z</time>
      </trkpt>
      <trkpt lat="48.19659" lon="5.94377">
        <ele>358.3</ele>
        <time>2024-02-19T15:14:58Z</time>
      </trkpt>
      <trkpt lat="48.19676" lon="5.94389">
        <ele>359.2</ele>
        <time>2024-02-19T15:15:07Z</time>
      </trkpt>
      <trkpt lat="48.19695" lon="5.94401">
        <ele>360</ele>
        <time>2024-02-19T15:15:16Z</time>
      </trkpt>
      <trkpt lat="48.19714" lon="5.94407">
        <ele>360.3</ele>
        <time>2024-02-19T15:15:24Z</time>
      </trkpt>
      <trkpt lat="48.19733" lon="5.94409">
        <ele>360.3</ele>
        <time>2024-02-19T15:15:32Z</time>
      </trkpt>
      <trkpt lat="48.1975" lon="5.94402">
        <ele>360</ele>
        <time>2024-02-19T15:15:40Z</time>
      </trkpt>
      <trkpt lat="48.1977" lon="5.94398">
        <ele>359.3</ele>
        <time>2024-02-19T15:15:49Z</time>
      </trkpt>
      <trkpt lat="48.19788" lon="5.94394">
        <ele>358.7</ele>
        <time>2024-02-19T15:15:57Z</time>
      </trkpt>
      <trkpt lat="48.19806" lon="5.94401">
        <ele>358</ele>
        <time>2024-02-19T15:16:05Z</time>
      </trkpt>
      <trkpt lat="48.19825" lon="5.94409">
        <ele>357.3</ele>
        <time>2024-02-19T15:16:13Z</time>
      </trkpt>
      <trkpt lat="48.19841" lon="5.94423">
        <ele>356.5</ele>
        <time>2024-02-19T15:16:21Z</time>
      </trkpt>
      <trkpt lat="48.19857" lon="5.94441">
        <ele>355.6</ele>
        <time>2024-02-19T15:16:29Z</time>
      </trkpt>
      <trkpt lat="48.19873" lon="5.94456">
        <ele>354.6</ele>
        <time>2024-02-19T15:16:36Z</time>
      </trkpt>
      <trkpt lat="48.19889" lon="5.94474">
        <ele>353.1</ele>
        <time>2024-02-19T15:16:44Z</time>
      </trkpt>
      <trkpt lat="48.19897" lon="5.94483">
        <ele>352.5</ele>
        <time>2024-02-19T15:16:48Z</time>
      </trkpt>
      <trkpt lat="48.19915" lon="5.94474">
        <ele>351.6</ele>
        <time>2024-02-19T15:16:55Z</time>
      </trkpt>
      <trkpt lat="48.19931" lon="5.94461">
        <ele>350.7</ele>
        <time>2024-02-19T15:17:02Z</time>
      </trkpt>
      <trkpt lat="48.19948" lon="5.94445">
        <ele>349.8</ele>
        <time>2024-02-19T15:17:10Z</time>
      </trkpt>
      <trkpt lat="48.19964" lon="5.94432">
        <ele>349</ele>
        <time>2024-02-19T15:17:18Z</time>
      </trkpt>
      <trkpt lat="48.19982" lon="5.94418">
        <ele>348.3</ele>
        <time>2024-02-19T15:17:26Z</time>
      </trkpt>
      <trkpt lat="48.19987" lon="5.94416">
        <ele>348.1</ele>
        <time>2024-02-19T15:17:31Z</time>
      </trkpt>
      <trkpt lat="48.19988" lon="5.94415">
        <ele>348.1</ele>
        <time>2024-02-19T15:17:33Z</time>
      </trkpt>
      <trkpt lat="48.19989" lon="5.94417">
        <ele>348.1</ele>
        <time>2024-02-19T15:17:42Z</time>
      </trkpt>
      <trkpt lat="48.2001" lon="5.94417">
        <ele>347.3</ele>
        <time>2024-02-19T15:17:51Z</time>
      </trkpt>
      <trkpt lat="48.20028" lon="5.94425">
        <ele>346.6</ele>
        <time>2024-02-19T15:17:58Z</time>
      </trkpt>
      <trkpt lat="48.20046" lon="5.9443">
        <ele>346.1</ele>
        <time>2024-02-19T15:18:05Z</time>
      </trkpt>
      <trkpt lat="48.20066" lon="5.94428">
        <ele>345.7</ele>
        <time>2024-02-19T15:18:12Z</time>
      </trkpt>
      <trkpt lat="48.20086" lon="5.94426">
        <ele>345.2</ele>
        <time>2024-02-19T15:18:19Z</time>
      </trkpt>
      <trkpt lat="48.20104" lon="5.94421">
        <ele>344.6</ele>
        <time>2024-02-19T15:18:27Z</time>
      </trkpt>
      <trkpt lat="48.20123" lon="5.94419">
        <ele>344</ele>
        <time>2024-02-19T15:18:35Z</time>
      </trkpt>
      <trkpt lat="48.20142" lon="5.94427">
        <ele>343.3</ele>
        <time>2024-02-19T15:18:43Z</time>
      </trkpt>
      <trkpt lat="48.20153" lon="5.94437">
        <ele>342.9</ele>
        <time>2024-02-19T15:18:49Z</time>
      </trkpt>
    </trkseg>
  </trk>
</gpx>